
<gpx xmlns="http://www.topografix.com/GPX/1/1" xmlns:gpxx="http://www.garmin.com/xmlschemas/GpxExtensions/v3" xmlns:wptx1="http://www.garmin.com/xmlschemas/WaypointExtension/v1" xmlns:xsi="http://www.w3.org/2001/XMLSchema-instance" version="1.1" creator="Adze - https://getadze.com/" xsi:schemaLocation="http://www.topografix.com/GPX/1/1 http://www.topografix.com/GPX/1/1/gpx.xsd http://www.garmin.com/xmlschemas/GpxExtensions/v3 http://www8.garmin.com/xmlschemas/GpxExtensionsv3.xsd http://www.garmin.com/xmlschemas/WaypointExtension/v1 http://www8.garmin.com/xmlschemas/WaypointExtensionv1.xsd">
    <metadata>
        <name>Untitled Document</name>
        <link href="http://www.garmin.com"></link>
        <time>2018-03-06T07:38:57.112Z</time>
    </metadata>
    <wpt lon="101.867671" lat="14.141898">
        <ele>45.000000</ele>
        <name>Suan Nongnooch Prachinburi</name>
        <sym>Building</sym>
        <type>user</type>
        <extensions>
            <gpxx:WaypointExtension>
                <gpxx:DisplayMode>SymbolAndName</gpxx:DisplayMode>
            </gpxx:WaypointExtension>
            <wptx1:WaypointExtension>
                <wptx1:DisplayMode>SymbolAndName</wptx1:DisplayMode>
            </wptx1:WaypointExtension>
        </extensions>
    </wpt>
    <trk>
        <name>June 2007 - Saturday</name>
        <extensions>
            <gpxx:TrackExtension>
                <gpxx:DisplayColor>DarkGray</gpxx:DisplayColor>
            </gpxx:TrackExtension>
        </extensions>
        <trkseg>
            <trkpt lon="101.867766" lat="14.141915">
                <ele>40.512817</ele>
                <time>2007-06-30T06:08:25Z</time>
            </trkpt>
            <trkpt lon="101.868174" lat="14.141700">
                <ele>39.070679</ele>
                <time>2007-06-30T06:08:44Z</time>
            </trkpt>
            <trkpt lon="101.868196" lat="14.141679">
                <ele>39.070679</ele>
                <time>2007-06-30T06:08:45Z</time>
            </trkpt>
            <trkpt lon="101.868367" lat="14.141507">
                <ele>38.109375</ele>
                <time>2007-06-30T06:08:50Z</time>
            </trkpt>
            <trkpt lon="101.868474" lat="14.141335">
                <ele>37.628662</ele>
                <time>2007-06-30T06:08:54Z</time>
            </trkpt>
            <trkpt lon="101.868539" lat="14.141250">
                <ele>36.186768</ele>
                <time>2007-06-30T06:08:56Z</time>
            </trkpt>
            <trkpt lon="101.868711" lat="14.141099">
                <ele>35.225464</ele>
                <time>2007-06-30T06:09:00Z</time>
            </trkpt>
            <trkpt lon="101.868818" lat="14.141057">
                <ele>34.744873</ele>
                <time>2007-06-30T06:09:02Z</time>
            </trkpt>
            <trkpt lon="101.868968" lat="14.140756">
                <ele>33.783447</ele>
                <time>2007-06-30T06:09:08Z</time>
            </trkpt>
            <trkpt lon="101.869011" lat="14.140477">
                <ele>33.302856</ele>
                <time>2007-06-30T06:09:14Z</time>
            </trkpt>
            <trkpt lon="101.869311" lat="14.140348">
                <ele>32.822266</ele>
                <time>2007-06-30T06:09:22Z</time>
            </trkpt>
            <trkpt lon="101.869354" lat="14.140370">
                <ele>32.341553</ele>
                <time>2007-06-30T06:09:23Z</time>
            </trkpt>
            <trkpt lon="101.869955" lat="14.140584">
                <ele>33.302856</ele>
                <time>2007-06-30T06:09:39Z</time>
            </trkpt>
            <trkpt lon="101.870492" lat="14.140391">
                <ele>33.783447</ele>
                <time>2007-06-30T06:09:53Z</time>
            </trkpt>
            <trkpt lon="101.870706" lat="14.140370">
                <ele>34.264160</ele>
                <time>2007-06-30T06:09:59Z</time>
            </trkpt>
            <trkpt lon="101.871221" lat="14.140456">
                <ele>35.706055</ele>
                <time>2007-06-30T06:10:16Z</time>
            </trkpt>
            <trkpt lon="101.871629" lat="14.140413">
                <ele>37.628662</ele>
                <time>2007-06-30T06:10:27Z</time>
            </trkpt>
            <trkpt lon="101.872401" lat="14.140241">
                <ele>37.148071</ele>
                <time>2007-06-30T06:10:49Z</time>
            </trkpt>
            <trkpt lon="101.872444" lat="14.140327">
                <ele>37.148071</ele>
                <time>2007-06-30T06:10:53Z</time>
            </trkpt>
            <trkpt lon="101.872616" lat="14.141121">
                <ele>35.706055</ele>
                <time>2007-06-30T06:11:11Z</time>
            </trkpt>
            <trkpt lon="101.872938" lat="14.142044">
                <ele>34.744873</ele>
                <time>2007-06-30T06:11:31Z</time>
            </trkpt>
            <trkpt lon="101.872959" lat="14.142129">
                <ele>34.744873</ele>
                <time>2007-06-30T06:11:33Z</time>
            </trkpt>
            <trkpt lon="101.873131" lat="14.142687">
                <ele>33.783447</ele>
                <time>2007-06-30T06:11:47Z</time>
            </trkpt>
            <trkpt lon="101.873453" lat="14.143417">
                <ele>31.380127</ele>
                <time>2007-06-30T06:12:05Z</time>
            </trkpt>
            <trkpt lon="101.873496" lat="14.143610">
                <ele>31.380127</ele>
                <time>2007-06-30T06:12:09Z</time>
            </trkpt>
            <trkpt lon="101.873474" lat="14.144683">
                <ele>30.899536</ele>
                <time>2007-06-30T06:12:35Z</time>
            </trkpt>
            <trkpt lon="101.873732" lat="14.145219">
                <ele>32.822266</ele>
                <time>2007-06-30T06:12:51Z</time>
            </trkpt>
            <trkpt lon="101.873925" lat="14.145863">
                <ele>35.225464</ele>
                <time>2007-06-30T06:13:06Z</time>
            </trkpt>
            <trkpt lon="101.874139" lat="14.146271">
                <ele>34.264160</ele>
                <time>2007-06-30T06:13:18Z</time>
            </trkpt>
            <trkpt lon="101.874526" lat="14.146850">
                <ele>35.706055</ele>
                <time>2007-06-30T06:13:35Z</time>
            </trkpt>
            <trkpt lon="101.875298" lat="14.147043">
                <ele>34.744873</ele>
                <time>2007-06-30T06:13:52Z</time>
            </trkpt>
            <trkpt lon="101.875427" lat="14.147043">
                <ele>34.744873</ele>
                <time>2007-06-30T06:13:55Z</time>
            </trkpt>
            <trkpt lon="101.876092" lat="14.146957">
                <ele>37.148071</ele>
                <time>2007-06-30T06:14:12Z</time>
            </trkpt>
            <trkpt lon="101.876607" lat="14.146721">
                <ele>36.667480</ele>
                <time>2007-06-30T06:14:25Z</time>
            </trkpt>
            <trkpt lon="101.877165" lat="14.146764">
                <ele>38.109375</ele>
                <time>2007-06-30T06:14:39Z</time>
            </trkpt>
            <trkpt lon="101.877830" lat="14.147193">
                <ele>39.551270</ele>
                <time>2007-06-30T06:14:59Z</time>
            </trkpt>
            <trkpt lon="101.877959" lat="14.147279">
                <ele>40.512817</ele>
                <time>2007-06-30T06:15:03Z</time>
            </trkpt>
            <trkpt lon="101.878538" lat="14.147494">
                <ele>40.993408</ele>
                <time>2007-06-30T06:15:19Z</time>
            </trkpt>
            <trkpt lon="101.879246" lat="14.147666">
                <ele>49.164551</ele>
                <time>2007-06-30T06:15:43Z</time>
            </trkpt>
            <trkpt lon="101.879718" lat="14.147794">
                <ele>55.893799</ele>
                <time>2007-06-30T06:16:03Z</time>
            </trkpt>
            <trkpt lon="101.880126" lat="14.147902">
                <ele>56.855103</ele>
                <time>2007-06-30T06:16:20Z</time>
            </trkpt>
            <trkpt lon="101.880598" lat="14.147902">
                <ele>56.855103</ele>
                <time>2007-06-30T06:16:37Z</time>
            </trkpt>
            <trkpt lon="101.889760" lat="14.144855">
                <ele>65.026367</ele>
                <time>2007-06-30T06:23:31Z</time>
            </trkpt>
            <trkpt lon="101.890554" lat="14.144683">
                <ele>54.451782</ele>
                <time>2007-06-30T06:23:52Z</time>
            </trkpt>
            <trkpt lon="101.891413" lat="14.144425">
                <ele>57.335815</ele>
                <time>2007-06-30T06:24:13Z</time>
            </trkpt>
            <trkpt lon="101.891584" lat="14.144340">
                <ele>57.816528</ele>
                <time>2007-06-30T06:24:18Z</time>
            </trkpt>
            <trkpt lon="101.892056" lat="14.143696">
                <ele>59.739136</ele>
                <time>2007-06-30T06:24:34Z</time>
            </trkpt>
            <trkpt lon="101.892443" lat="14.143009">
                <ele>58.297119</ele>
                <time>2007-06-30T06:24:49Z</time>
            </trkpt>
            <trkpt lon="101.892636" lat="14.142730">
                <ele>57.816528</ele>
                <time>2007-06-30T06:24:54Z</time>
            </trkpt>
            <trkpt lon="101.892893" lat="14.142623">
                <ele>57.335815</ele>
                <time>2007-06-30T06:24:58Z</time>
            </trkpt>
            <trkpt lon="101.893108" lat="14.142580">
                <ele>59.739136</ele>
                <time>2007-06-30T06:25:02Z</time>
            </trkpt>
            <trkpt lon="101.893387" lat="14.142516">
                <ele>59.258423</ele>
                <time>2007-06-30T06:25:06Z</time>
            </trkpt>
            <trkpt lon="101.894932" lat="14.142494">
                <ele>71.755493</ele>
                <time>2007-06-30T06:26:56Z</time>
            </trkpt>
            <trkpt lon="101.894953" lat="14.142516">
                <ele>64.065063</ele>
                <time>2007-06-30T06:28:15Z</time>
            </trkpt>
            <trkpt lon="101.894910" lat="14.142537">
                <ele>65.507080</ele>
                <time>2007-06-30T06:29:00Z</time>
            </trkpt>
            <trkpt lon="101.894546" lat="14.142580">
                <ele>64.545654</ele>
                <time>2007-06-30T06:29:16Z</time>
            </trkpt>
            <trkpt lon="101.894374" lat="14.142580">
                <ele>65.507080</ele>
                <time>2007-06-30T06:29:26Z</time>
            </trkpt>
            <trkpt lon="101.894288" lat="14.142580">
                <ele>66.948975</ele>
                <time>2007-06-30T06:29:53Z</time>
            </trkpt>
            <trkpt lon="101.894267" lat="14.142580">
                <ele>69.832886</ele>
                <time>2007-06-30T06:30:29Z</time>
            </trkpt>
            <trkpt lon="101.894631" lat="14.142580">
                <ele>68.871582</ele>
                <time>2007-06-30T06:30:48Z</time>
            </trkpt>
            <trkpt lon="101.895318" lat="14.142451">
                <ele>66.948975</ele>
                <time>2007-06-30T06:31:07Z</time>
            </trkpt>
            <trkpt lon="101.895447" lat="14.142408">
                <ele>66.468262</ele>
                <time>2007-06-30T06:31:11Z</time>
            </trkpt>
            <trkpt lon="101.896026" lat="14.141979">
                <ele>66.468262</ele>
                <time>2007-06-30T06:31:27Z</time>
            </trkpt>
            <trkpt lon="101.896176" lat="14.141872">
                <ele>65.987671</ele>
                <time>2007-06-30T06:31:31Z</time>
            </trkpt>
            <trkpt lon="101.896584" lat="14.141486">
                <ele>63.103638</ele>
                <time>2007-06-30T06:31:41Z</time>
            </trkpt>
            <trkpt lon="101.896799" lat="14.141507">
                <ele>62.142334</ele>
                <time>2007-06-30T06:31:47Z</time>
            </trkpt>
            <trkpt lon="101.897314" lat="14.142172">
                <ele>62.142334</ele>
                <time>2007-06-30T06:32:05Z</time>
            </trkpt>
            <trkpt lon="101.897635" lat="14.142880">
                <ele>60.219727</ele>
                <time>2007-06-30T06:32:22Z</time>
            </trkpt>
            <trkpt lon="101.897807" lat="14.143138">
                <ele>59.739136</ele>
                <time>2007-06-30T06:32:30Z</time>
            </trkpt>
            <trkpt lon="101.897850" lat="14.143224">
                <ele>59.258423</ele>
                <time>2007-06-30T06:32:32Z</time>
            </trkpt>
            <trkpt lon="101.897871" lat="14.143460">
                <ele>57.335815</ele>
                <time>2007-06-30T06:32:37Z</time>
            </trkpt>
            <trkpt lon="101.897893" lat="14.143696">
                <ele>55.413086</ele>
                <time>2007-06-30T06:32:42Z</time>
            </trkpt>
            <trkpt lon="101.897893" lat="14.144146">
                <ele>53.971191</ele>
                <time>2007-06-30T06:32:56Z</time>
            </trkpt>
            <trkpt lon="101.897914" lat="14.144576">
                <ele>52.048584</ele>
                <time>2007-06-30T06:33:08Z</time>
            </trkpt>
            <trkpt lon="101.897979" lat="14.144833">
                <ele>50.606567</ele>
                <time>2007-06-30T06:33:16Z</time>
            </trkpt>
            <trkpt lon="101.898215" lat="14.144962">
                <ele>50.606567</ele>
                <time>2007-06-30T06:33:28Z</time>
            </trkpt>
            <trkpt lon="101.898344" lat="14.145026">
                <ele>51.087158</ele>
                <time>2007-06-30T06:33:34Z</time>
            </trkpt>
            <trkpt lon="101.898365" lat="14.145133">
                <ele>52.529175</ele>
                <time>2007-06-30T06:33:39Z</time>
            </trkpt>
            <trkpt lon="101.898344" lat="14.145563">
                <ele>52.048584</ele>
                <time>2007-06-30T06:33:53Z</time>
            </trkpt>
            <trkpt lon="101.898215" lat="14.145927">
                <ele>51.567871</ele>
                <time>2007-06-30T06:34:06Z</time>
            </trkpt>
            <trkpt lon="101.898236" lat="14.146357">
                <ele>51.087158</ele>
                <time>2007-06-30T06:34:21Z</time>
            </trkpt>
            <trkpt lon="101.898344" lat="14.146979">
                <ele>56.855103</ele>
                <time>2007-06-30T06:34:40Z</time>
            </trkpt>
            <trkpt lon="101.898623" lat="14.147151">
                <ele>55.893799</ele>
                <time>2007-06-30T06:34:55Z</time>
            </trkpt>
            <trkpt lon="101.898644" lat="14.147151">
                <ele>55.893799</ele>
                <time>2007-06-30T06:34:56Z</time>
            </trkpt>
            <trkpt lon="101.898859" lat="14.147086">
                <ele>56.374512</ele>
                <time>2007-06-30T06:35:11Z</time>
            </trkpt>
            <trkpt lon="101.898923" lat="14.147129">
                <ele>56.374512</ele>
                <time>2007-06-30T06:35:17Z</time>
            </trkpt>
            <trkpt lon="101.899052" lat="14.147258">
                <ele>58.297119</ele>
                <time>2007-06-30T06:35:30Z</time>
            </trkpt>
            <trkpt lon="101.899073" lat="14.147258">
                <ele>58.777710</ele>
                <time>2007-06-30T06:35:42Z</time>
            </trkpt>
            <trkpt lon="101.899137" lat="14.147558">
                <ele>61.181030</ele>
                <time>2007-06-30T06:35:57Z</time>
            </trkpt>
            <trkpt lon="101.899073" lat="14.147687">
                <ele>61.661743</ele>
                <time>2007-06-30T06:36:04Z</time>
            </trkpt>
            <trkpt lon="101.899180" lat="14.147923">
                <ele>65.026367</ele>
                <time>2007-06-30T06:36:19Z</time>
            </trkpt>
            <trkpt lon="101.899202" lat="14.148180">
                <ele>66.948975</ele>
                <time>2007-06-30T06:36:37Z</time>
            </trkpt>
            <trkpt lon="101.899202" lat="14.148374">
                <ele>67.910278</ele>
                <time>2007-06-30T06:36:51Z</time>
            </trkpt>
            <trkpt lon="101.899245" lat="14.148653">
                <ele>70.313477</ele>
                <time>2007-06-30T06:37:08Z</time>
            </trkpt>
            <trkpt lon="101.899352" lat="14.148889">
                <ele>73.197632</ele>
                <time>2007-06-30T06:37:25Z</time>
            </trkpt>
            <trkpt lon="101.899481" lat="14.149189">
                <ele>75.120239</ele>
                <time>2007-06-30T06:37:43Z</time>
            </trkpt>
            <trkpt lon="101.899545" lat="14.149575">
                <ele>78.484741</ele>
                <time>2007-06-30T06:38:00Z</time>
            </trkpt>
            <trkpt lon="101.899545" lat="14.149683">
                <ele>78.484741</ele>
                <time>2007-06-30T06:38:05Z</time>
            </trkpt>
            <trkpt lon="101.899545" lat="14.149747">
                <ele>78.004028</ele>
                <time>2007-06-30T06:38:10Z</time>
            </trkpt>
            <trkpt lon="101.899567" lat="14.149983">
                <ele>78.004028</ele>
                <time>2007-06-30T06:38:23Z</time>
            </trkpt>
            <trkpt lon="101.899610" lat="14.149983">
                <ele>78.484741</ele>
                <time>2007-06-30T06:38:27Z</time>
            </trkpt>
            <trkpt lon="101.899867" lat="14.149833">
                <ele>79.926636</ele>
                <time>2007-06-30T06:38:42Z</time>
            </trkpt>
            <trkpt lon="101.900275" lat="14.149747">
                <ele>82.330078</ele>
                <time>2007-06-30T06:38:58Z</time>
            </trkpt>
            <trkpt lon="101.900790" lat="14.149618">
                <ele>82.810791</ele>
                <time>2007-06-30T06:39:17Z</time>
            </trkpt>
            <trkpt lon="101.901305" lat="14.149532">
                <ele>82.810791</ele>
                <time>2007-06-30T06:39:33Z</time>
            </trkpt>
            <trkpt lon="101.901391" lat="14.149511">
                <ele>81.849365</ele>
                <time>2007-06-30T06:39:35Z</time>
            </trkpt>
            <trkpt lon="101.901755" lat="14.149404">
                <ele>81.849365</ele>
                <time>2007-06-30T06:39:47Z</time>
            </trkpt>
            <trkpt lon="101.902270" lat="14.149146">
                <ele>83.291382</ele>
                <time>2007-06-30T06:40:05Z</time>
            </trkpt>
            <trkpt lon="101.902313" lat="14.149125">
                <ele>82.810791</ele>
                <time>2007-06-30T06:40:07Z</time>
            </trkpt>
            <trkpt lon="101.902356" lat="14.149125">
                <ele>82.810791</ele>
                <time>2007-06-30T06:40:12Z</time>
            </trkpt>
            <trkpt lon="101.902721" lat="14.149210">
                <ele>84.252686</ele>
                <time>2007-06-30T06:40:25Z</time>
            </trkpt>
            <trkpt lon="101.902978" lat="14.149446">
                <ele>86.656006</ele>
                <time>2007-06-30T06:40:37Z</time>
            </trkpt>
            <trkpt lon="101.903129" lat="14.149897">
                <ele>90.501343</ele>
                <time>2007-06-30T06:40:56Z</time>
            </trkpt>
            <trkpt lon="101.903279" lat="14.150283">
                <ele>93.385132</ele>
                <time>2007-06-30T06:41:13Z</time>
            </trkpt>
            <trkpt lon="101.903365" lat="14.150562">
                <ele>95.307739</ele>
                <time>2007-06-30T06:41:27Z</time>
            </trkpt>
            <trkpt lon="101.903365" lat="14.150519">
                <ele>94.346558</ele>
                <time>2007-06-30T06:41:32Z</time>
            </trkpt>
            <trkpt lon="101.903172" lat="14.150004">
                <ele>90.020630</ele>
                <time>2007-06-30T06:41:47Z</time>
            </trkpt>
            <trkpt lon="101.902957" lat="14.149382">
                <ele>87.136597</ele>
                <time>2007-06-30T06:41:58Z</time>
            </trkpt>
            <trkpt lon="101.902699" lat="14.149232">
                <ele>85.694580</ele>
                <time>2007-06-30T06:42:04Z</time>
            </trkpt>
            <trkpt lon="101.902571" lat="14.149210">
                <ele>85.694580</ele>
                <time>2007-06-30T06:42:07Z</time>
            </trkpt>
            <trkpt lon="101.902249" lat="14.149168">
                <ele>85.213989</ele>
                <time>2007-06-30T06:42:14Z</time>
            </trkpt>
            <trkpt lon="101.901927" lat="14.149361">
                <ele>85.694580</ele>
                <time>2007-06-30T06:42:21Z</time>
            </trkpt>
            <trkpt lon="101.901691" lat="14.149446">
                <ele>85.213989</ele>
                <time>2007-06-30T06:42:26Z</time>
            </trkpt>
            <trkpt lon="101.901455" lat="14.149489">
                <ele>85.213989</ele>
                <time>2007-06-30T06:42:31Z</time>
            </trkpt>
            <trkpt lon="101.900833" lat="14.149618">
                <ele>85.694580</ele>
                <time>2007-06-30T06:42:46Z</time>
            </trkpt>
            <trkpt lon="101.900489" lat="14.149683">
                <ele>85.694580</ele>
                <time>2007-06-30T06:42:54Z</time>
            </trkpt>
            <trkpt lon="101.899803" lat="14.149854">
                <ele>87.136597</ele>
                <time>2007-06-30T06:43:09Z</time>
            </trkpt>
            <trkpt lon="101.899610" lat="14.150047">
                <ele>85.694580</ele>
                <time>2007-06-30T06:43:21Z</time>
            </trkpt>
            <trkpt lon="101.899567" lat="14.150391">
                <ele>84.733398</ele>
                <time>2007-06-30T06:43:37Z</time>
            </trkpt>
            <trkpt lon="101.899545" lat="14.150498">
                <ele>85.694580</ele>
                <time>2007-06-30T06:43:45Z</time>
            </trkpt>
            <trkpt lon="101.899545" lat="14.150798">
                <ele>86.656006</ele>
                <time>2007-06-30T06:44:04Z</time>
            </trkpt>
            <trkpt lon="101.899481" lat="14.151313">
                <ele>85.694580</ele>
                <time>2007-06-30T06:44:24Z</time>
            </trkpt>
            <trkpt lon="101.899524" lat="14.151506">
                <ele>85.694580</ele>
                <time>2007-06-30T06:44:32Z</time>
            </trkpt>
            <trkpt lon="101.899438" lat="14.151914">
                <ele>84.733398</ele>
                <time>2007-06-30T06:44:47Z</time>
            </trkpt>
            <trkpt lon="101.899374" lat="14.152193">
                <ele>89.059326</ele>
                <time>2007-06-30T06:45:02Z</time>
            </trkpt>
            <trkpt lon="101.899416" lat="14.152579">
                <ele>92.904541</ele>
                <time>2007-06-30T06:45:20Z</time>
            </trkpt>
            <trkpt lon="101.899567" lat="14.152923">
                <ele>92.423950</ele>
                <time>2007-06-30T06:45:35Z</time>
            </trkpt>
            <trkpt lon="101.899781" lat="14.153373">
                <ele>96.269287</ele>
                <time>2007-06-30T06:45:53Z</time>
            </trkpt>
            <trkpt lon="101.899824" lat="14.153824">
                <ele>99.633789</ele>
                <time>2007-06-30T06:46:12Z</time>
            </trkpt>
            <trkpt lon="101.899760" lat="14.154167">
                <ele>94.346558</ele>
                <time>2007-06-30T06:46:29Z</time>
            </trkpt>
            <trkpt lon="101.899781" lat="14.154618">
                <ele>95.307739</ele>
                <time>2007-06-30T06:46:47Z</time>
            </trkpt>
            <trkpt lon="101.900039" lat="14.155068">
                <ele>99.153076</ele>
                <time>2007-06-30T06:47:05Z</time>
            </trkpt>
            <trkpt lon="101.900232" lat="14.155455">
                <ele>103.959717</ele>
                <time>2007-06-30T06:47:22Z</time>
            </trkpt>
            <trkpt lon="101.900489" lat="14.155519">
                <ele>107.805054</ele>
                <time>2007-06-30T06:47:35Z</time>
            </trkpt>
            <trkpt lon="101.900811" lat="14.155562">
                <ele>112.611572</ele>
                <time>2007-06-30T06:47:50Z</time>
            </trkpt>
            <trkpt lon="101.901197" lat="14.155626">
                <ele>115.495605</ele>
                <time>2007-06-30T06:48:07Z</time>
            </trkpt>
            <trkpt lon="101.901605" lat="14.155691">
                <ele>115.976196</ele>
                <time>2007-06-30T06:48:26Z</time>
            </trkpt>
            <trkpt lon="101.901948" lat="14.155905">
                <ele>118.379395</ele>
                <time>2007-06-30T06:48:45Z</time>
            </trkpt>
            <trkpt lon="101.902292" lat="14.156077">
                <ele>121.744141</ele>
                <time>2007-06-30T06:49:00Z</time>
            </trkpt>
            <trkpt lon="101.902399" lat="14.156098">
                <ele>122.224731</ele>
                <time>2007-06-30T06:49:04Z</time>
            </trkpt>
            <trkpt lon="101.902871" lat="14.156141">
                <ele>121.263550</ele>
                <time>2007-06-30T06:49:28Z</time>
            </trkpt>
            <trkpt lon="101.903300" lat="14.156141">
                <ele>126.069946</ele>
                <time>2007-06-30T06:49:48Z</time>
            </trkpt>
            <trkpt lon="101.903772" lat="14.156420">
                <ele>130.876709</ele>
                <time>2007-06-30T06:50:08Z</time>
            </trkpt>
            <trkpt lon="101.903923" lat="14.156914">
                <ele>130.395996</ele>
                <time>2007-06-30T06:50:29Z</time>
            </trkpt>
            <trkpt lon="101.903965" lat="14.157472">
                <ele>133.279907</ele>
                <time>2007-06-30T06:50:51Z</time>
            </trkpt>
            <trkpt lon="101.903987" lat="14.157965">
                <ele>132.799316</ele>
                <time>2007-06-30T06:51:11Z</time>
            </trkpt>
            <trkpt lon="101.904116" lat="14.158437">
                <ele>134.241211</ele>
                <time>2007-06-30T06:51:30Z</time>
            </trkpt>
            <trkpt lon="101.904223" lat="14.158888">
                <ele>136.644653</ele>
                <time>2007-06-30T06:51:48Z</time>
            </trkpt>
            <trkpt lon="101.904266" lat="14.159253">
                <ele>139.047852</ele>
                <time>2007-06-30T06:52:04Z</time>
            </trkpt>
            <trkpt lon="101.904352" lat="14.159789">
                <ele>141.931763</ele>
                <time>2007-06-30T06:52:25Z</time>
            </trkpt>
            <trkpt lon="101.904395" lat="14.160218">
                <ele>143.373657</ele>
                <time>2007-06-30T06:52:41Z</time>
            </trkpt>
            <trkpt lon="101.904545" lat="14.160669">
                <ele>145.777100</ele>
                <time>2007-06-30T06:52:58Z</time>
            </trkpt>
            <trkpt lon="101.904738" lat="14.161184">
                <ele>148.661011</ele>
                <time>2007-06-30T06:53:17Z</time>
            </trkpt>
            <trkpt lon="101.904931" lat="14.161763">
                <ele>151.064209</ele>
                <time>2007-06-30T06:53:37Z</time>
            </trkpt>
            <trkpt lon="101.905081" lat="14.162385">
                <ele>152.506348</ele>
                <time>2007-06-30T06:53:55Z</time>
            </trkpt>
            <trkpt lon="101.905081" lat="14.163029">
                <ele>150.583618</ele>
                <time>2007-06-30T06:54:15Z</time>
            </trkpt>
            <trkpt lon="101.905081" lat="14.163694">
                <ele>150.103027</ele>
                <time>2007-06-30T06:54:37Z</time>
            </trkpt>
            <trkpt lon="101.905038" lat="14.164081">
                <ele>157.793579</ele>
                <time>2007-06-30T06:54:56Z</time>
            </trkpt>
            <trkpt lon="101.905167" lat="14.164317">
                <ele>160.677490</ele>
                <time>2007-06-30T06:55:10Z</time>
            </trkpt>
            <trkpt lon="101.905382" lat="14.164553">
                <ele>164.522705</ele>
                <time>2007-06-30T06:55:26Z</time>
            </trkpt>
            <trkpt lon="101.905532" lat="14.164832">
                <ele>165.003418</ele>
                <time>2007-06-30T06:55:42Z</time>
            </trkpt>
            <trkpt lon="101.905704" lat="14.165154">
                <ele>167.406738</ele>
                <time>2007-06-30T06:55:58Z</time>
            </trkpt>
            <trkpt lon="101.905854" lat="14.165497">
                <ele>169.329468</ele>
                <time>2007-06-30T06:56:14Z</time>
            </trkpt>
            <trkpt lon="101.905961" lat="14.165926">
                <ele>171.732666</ele>
                <time>2007-06-30T06:56:32Z</time>
            </trkpt>
            <trkpt lon="101.906068" lat="14.166205">
                <ele>173.655273</ele>
                <time>2007-06-30T06:56:46Z</time>
            </trkpt>
            <trkpt lon="101.906326" lat="14.166420">
                <ele>177.020020</ele>
                <time>2007-06-30T06:57:03Z</time>
            </trkpt>
            <trkpt lon="101.906433" lat="14.166462">
                <ele>178.461914</ele>
                <time>2007-06-30T06:57:11Z</time>
            </trkpt>
            <trkpt lon="101.906476" lat="14.166462">
                <ele>179.903809</ele>
                <time>2007-06-30T06:57:27Z</time>
            </trkpt>
            <trkpt lon="101.906476" lat="14.166441">
                <ele>180.384521</ele>
                <time>2007-06-30T06:58:22Z</time>
            </trkpt>
            <trkpt lon="101.906433" lat="14.166441">
                <ele>177.981201</ele>
                <time>2007-06-30T07:00:03Z</time>
            </trkpt>
            <trkpt lon="101.906455" lat="14.166441">
                <ele>183.268433</ele>
                <time>2007-06-30T07:00:36Z</time>
            </trkpt>
            <trkpt lon="101.906455" lat="14.166462">
                <ele>182.307129</ele>
                <time>2007-06-30T07:01:00Z</time>
            </trkpt>
            <trkpt lon="101.906519" lat="14.166484">
                <ele>181.826416</ele>
                <time>2007-06-30T07:01:04Z</time>
            </trkpt>
            <trkpt lon="101.906476" lat="14.166548">
                <ele>182.307129</ele>
                <time>2007-06-30T07:01:09Z</time>
            </trkpt>
            <trkpt lon="101.906540" lat="14.166591">
                <ele>182.307129</ele>
                <time>2007-06-30T07:01:13Z</time>
            </trkpt>
            <trkpt lon="101.906905" lat="14.166892">
                <ele>182.787842</ele>
                <time>2007-06-30T07:01:33Z</time>
            </trkpt>
            <trkpt lon="101.907184" lat="14.167128">
                <ele>185.191162</ele>
                <time>2007-06-30T07:01:52Z</time>
            </trkpt>
            <trkpt lon="101.907227" lat="14.167256">
                <ele>186.152466</ele>
                <time>2007-06-30T07:02:01Z</time>
            </trkpt>
            <trkpt lon="101.907291" lat="14.167256">
                <ele>186.152466</ele>
                <time>2007-06-30T07:02:05Z</time>
            </trkpt>
            <trkpt lon="101.907570" lat="14.167364">
                <ele>188.075073</ele>
                <time>2007-06-30T07:02:20Z</time>
            </trkpt>
            <trkpt lon="101.907914" lat="14.167535">
                <ele>191.920288</ele>
                <time>2007-06-30T07:02:40Z</time>
            </trkpt>
            <trkpt lon="101.908042" lat="14.167728">
                <ele>192.881714</ele>
                <time>2007-06-30T07:02:57Z</time>
            </trkpt>
            <trkpt lon="101.908085" lat="14.167750">
                <ele>194.804321</ele>
                <time>2007-06-30T07:03:11Z</time>
            </trkpt>
            <trkpt lon="101.908236" lat="14.167943">
                <ele>194.804321</ele>
                <time>2007-06-30T07:03:27Z</time>
            </trkpt>
            <trkpt lon="101.908236" lat="14.168029">
                <ele>197.207520</ele>
                <time>2007-06-30T07:03:39Z</time>
            </trkpt>
            <trkpt lon="101.908257" lat="14.168029">
                <ele>197.688232</ele>
                <time>2007-06-30T07:03:44Z</time>
            </trkpt>
            <trkpt lon="101.908450" lat="14.168222">
                <ele>200.572266</ele>
                <time>2007-06-30T07:04:04Z</time>
            </trkpt>
            <trkpt lon="101.908686" lat="14.168372">
                <ele>204.417480</ele>
                <time>2007-06-30T07:04:22Z</time>
            </trkpt>
            <trkpt lon="101.908922" lat="14.168501">
                <ele>208.262817</ele>
                <time>2007-06-30T07:04:40Z</time>
            </trkpt>
            <trkpt lon="101.909008" lat="14.168673">
                <ele>210.185425</ele>
                <time>2007-06-30T07:04:55Z</time>
            </trkpt>
            <trkpt lon="101.909094" lat="14.168887">
                <ele>211.146729</ele>
                <time>2007-06-30T07:05:11Z</time>
            </trkpt>
            <trkpt lon="101.909287" lat="14.169059">
                <ele>212.108032</ele>
                <time>2007-06-30T07:05:29Z</time>
            </trkpt>
            <trkpt lon="101.909502" lat="14.169188">
                <ele>214.511230</ele>
                <time>2007-06-30T07:05:45Z</time>
            </trkpt>
            <trkpt lon="101.909802" lat="14.169295">
                <ele>217.395386</ele>
                <time>2007-06-30T07:06:04Z</time>
            </trkpt>
            <trkpt lon="101.910167" lat="14.169316">
                <ele>218.837280</ele>
                <time>2007-06-30T07:06:24Z</time>
            </trkpt>
            <trkpt lon="101.910467" lat="14.169338">
                <ele>220.759888</ele>
                <time>2007-06-30T07:06:41Z</time>
            </trkpt>
            <trkpt lon="101.910768" lat="14.169381">
                <ele>223.643799</ele>
                <time>2007-06-30T07:06:57Z</time>
            </trkpt>
            <trkpt lon="101.911047" lat="14.169509">
                <ele>226.047119</ele>
                <time>2007-06-30T07:07:17Z</time>
            </trkpt>
            <trkpt lon="101.911240" lat="14.169681">
                <ele>228.450439</ele>
                <time>2007-06-30T07:07:35Z</time>
            </trkpt>
            <trkpt lon="101.911368" lat="14.169874">
                <ele>229.892334</ele>
                <time>2007-06-30T07:07:52Z</time>
            </trkpt>
            <trkpt lon="101.911497" lat="14.170046">
                <ele>231.334351</ele>
                <time>2007-06-30T07:08:07Z</time>
            </trkpt>
            <trkpt lon="101.911540" lat="14.170132">
                <ele>231.814941</ele>
                <time>2007-06-30T07:08:14Z</time>
            </trkpt>
            <trkpt lon="101.911712" lat="14.170282">
                <ele>234.218384</ele>
                <time>2007-06-30T07:08:29Z</time>
            </trkpt>
            <trkpt lon="101.912012" lat="14.170454">
                <ele>237.102295</ele>
                <time>2007-06-30T07:08:47Z</time>
            </trkpt>
            <trkpt lon="101.912270" lat="14.170647">
                <ele>238.063599</ele>
                <time>2007-06-30T07:09:03Z</time>
            </trkpt>
            <trkpt lon="101.912420" lat="14.170883">
                <ele>238.544312</ele>
                <time>2007-06-30T07:09:18Z</time>
            </trkpt>
            <trkpt lon="101.912634" lat="14.171140">
                <ele>239.024902</ele>
                <time>2007-06-30T07:09:32Z</time>
            </trkpt>
            <trkpt lon="101.913106" lat="14.171548">
                <ele>239.986206</ele>
                <time>2007-06-30T07:09:47Z</time>
            </trkpt>
            <trkpt lon="101.913493" lat="14.171805">
                <ele>240.947632</ele>
                <time>2007-06-30T07:10:04Z</time>
            </trkpt>
            <trkpt lon="101.913643" lat="14.171956">
                <ele>244.792847</ele>
                <time>2007-06-30T07:10:20Z</time>
            </trkpt>
            <trkpt lon="101.913793" lat="14.172063">
                <ele>246.234863</ele>
                <time>2007-06-30T07:10:33Z</time>
            </trkpt>
            <trkpt lon="101.914008" lat="14.172235">
                <ele>249.118774</ele>
                <time>2007-06-30T07:10:52Z</time>
            </trkpt>
            <trkpt lon="101.914244" lat="14.172320">
                <ele>251.041382</ele>
                <time>2007-06-30T07:11:10Z</time>
            </trkpt>
            <trkpt lon="101.914480" lat="14.172406">
                <ele>254.406006</ele>
                <time>2007-06-30T07:11:30Z</time>
            </trkpt>
            <trkpt lon="101.914759" lat="14.172513">
                <ele>257.770752</ele>
                <time>2007-06-30T07:11:50Z</time>
            </trkpt>
            <trkpt lon="101.914973" lat="14.172621">
                <ele>259.693359</ele>
                <time>2007-06-30T07:12:08Z</time>
            </trkpt>
            <trkpt lon="101.915317" lat="14.172792">
                <ele>260.173950</ele>
                <time>2007-06-30T07:12:27Z</time>
            </trkpt>
            <trkpt lon="101.915681" lat="14.172964">
                <ele>262.577148</ele>
                <time>2007-06-30T07:12:45Z</time>
            </trkpt>
            <trkpt lon="101.915939" lat="14.173007">
                <ele>263.057861</ele>
                <time>2007-06-30T07:12:58Z</time>
            </trkpt>
            <trkpt lon="101.916239" lat="14.172986">
                <ele>264.499878</ele>
                <time>2007-06-30T07:13:14Z</time>
            </trkpt>
            <trkpt lon="101.916518" lat="14.173007">
                <ele>266.422485</ele>
                <time>2007-06-30T07:13:28Z</time>
            </trkpt>
            <trkpt lon="101.916819" lat="14.172857">
                <ele>266.903198</ele>
                <time>2007-06-30T07:13:45Z</time>
            </trkpt>
            <trkpt lon="101.917140" lat="14.172406">
                <ele>263.538574</ele>
                <time>2007-06-30T07:13:57Z</time>
            </trkpt>
            <trkpt lon="101.917269" lat="14.172127">
                <ele>260.173950</ele>
                <time>2007-06-30T07:14:05Z</time>
            </trkpt>
            <trkpt lon="101.917291" lat="14.172106">
                <ele>259.693359</ele>
                <time>2007-06-30T07:14:06Z</time>
            </trkpt>
            <trkpt lon="101.917548" lat="14.171977">
                <ele>256.809326</ele>
                <time>2007-06-30T07:14:12Z</time>
            </trkpt>
            <trkpt lon="101.917698" lat="14.171934">
                <ele>254.886597</ele>
                <time>2007-06-30T07:14:15Z</time>
            </trkpt>
            <trkpt lon="101.918020" lat="14.171848">
                <ele>253.925415</ele>
                <time>2007-06-30T07:14:22Z</time>
            </trkpt>
            <trkpt lon="101.918192" lat="14.171870">
                <ele>251.522095</ele>
                <time>2007-06-30T07:14:26Z</time>
            </trkpt>
            <trkpt lon="101.918471" lat="14.171999">
                <ele>251.041382</ele>
                <time>2007-06-30T07:14:36Z</time>
            </trkpt>
            <trkpt lon="101.918814" lat="14.172363">
                <ele>250.560791</ele>
                <time>2007-06-30T07:14:54Z</time>
            </trkpt>
            <trkpt lon="101.918943" lat="14.172621">
                <ele>251.522095</ele>
                <time>2007-06-30T07:15:09Z</time>
            </trkpt>
            <trkpt lon="101.919222" lat="14.173050">
                <ele>251.522095</ele>
                <time>2007-06-30T07:15:31Z</time>
            </trkpt>
            <trkpt lon="101.919630" lat="14.173393">
                <ele>253.925415</ele>
                <time>2007-06-30T07:15:53Z</time>
            </trkpt>
            <trkpt lon="101.920016" lat="14.173415">
                <ele>253.925415</ele>
                <time>2007-06-30T07:16:05Z</time>
            </trkpt>
            <trkpt lon="101.920273" lat="14.173543">
                <ele>255.367310</ele>
                <time>2007-06-30T07:16:23Z</time>
            </trkpt>
            <trkpt lon="101.920531" lat="14.173586">
                <ele>257.770752</ele>
                <time>2007-06-30T07:16:41Z</time>
            </trkpt>
            <trkpt lon="101.920874" lat="14.173651">
                <ele>264.980591</ele>
                <time>2007-06-30T07:17:02Z</time>
            </trkpt>
            <trkpt lon="101.921175" lat="14.173672">
                <ele>267.383911</ele>
                <time>2007-06-30T07:17:22Z</time>
            </trkpt>
            <trkpt lon="101.921475" lat="14.173758">
                <ele>271.709717</ele>
                <time>2007-06-30T07:17:42Z</time>
            </trkpt>
            <trkpt lon="101.921775" lat="14.173930">
                <ele>275.074463</ele>
                <time>2007-06-30T07:18:05Z</time>
            </trkpt>
            <trkpt lon="101.921861" lat="14.173908">
                <ele>276.035645</ele>
                <time>2007-06-30T07:18:12Z</time>
            </trkpt>
            <trkpt lon="101.922033" lat="14.174080">
                <ele>279.880859</ele>
                <time>2007-06-30T07:18:30Z</time>
            </trkpt>
            <trkpt lon="101.922162" lat="14.174273">
                <ele>282.765015</ele>
                <time>2007-06-30T07:18:47Z</time>
            </trkpt>
            <trkpt lon="101.922376" lat="14.174402">
                <ele>285.648804</ele>
                <time>2007-06-30T07:19:04Z</time>
            </trkpt>
            <trkpt lon="101.922612" lat="14.174488">
                <ele>288.052246</ele>
                <time>2007-06-30T07:19:21Z</time>
            </trkpt>
            <trkpt lon="101.922956" lat="14.174531">
                <ele>289.013550</ele>
                <time>2007-06-30T07:19:39Z</time>
            </trkpt>
            <trkpt lon="101.922998" lat="14.174531">
                <ele>288.052246</ele>
                <time>2007-06-30T07:19:51Z</time>
            </trkpt>
            <trkpt lon="101.922998" lat="14.174531">
                <ele>297.665405</ele>
                <time>2007-06-30T07:20:46Z</time>
            </trkpt>
            <trkpt lon="101.922977" lat="14.174573">
                <ele>287.090820</ele>
                <time>2007-06-30T07:24:11Z</time>
            </trkpt>
            <trkpt lon="101.923020" lat="14.174573">
                <ele>296.704102</ele>
                <time>2007-06-30T07:35:07Z</time>
            </trkpt>
            <trkpt lon="101.923041" lat="14.174531">
                <ele>293.339355</ele>
                <time>2007-06-30T07:35:24Z</time>
            </trkpt>
            <trkpt lon="101.923041" lat="14.174509">
                <ele>292.858765</ele>
                <time>2007-06-30T07:35:26Z</time>
            </trkpt>
            <trkpt lon="101.923063" lat="14.174380">
                <ele>290.455566</ele>
                <time>2007-06-30T07:35:33Z</time>
            </trkpt>
            <trkpt lon="101.923063" lat="14.174359">
                <ele>288.532959</ele>
                <time>2007-06-30T07:35:45Z</time>
            </trkpt>
            <trkpt lon="101.923127" lat="14.174252">
                <ele>286.610229</ele>
                <time>2007-06-30T07:36:01Z</time>
            </trkpt>
            <trkpt lon="101.923535" lat="14.174016">
                <ele>283.726196</ele>
                <time>2007-06-30T07:36:17Z</time>
            </trkpt>
            <trkpt lon="101.923921" lat="14.173844">
                <ele>282.765015</ele>
                <time>2007-06-30T07:36:31Z</time>
            </trkpt>
            <trkpt lon="101.924393" lat="14.173586">
                <ele>280.842407</ele>
                <time>2007-06-30T07:36:46Z</time>
            </trkpt>
            <trkpt lon="101.924951" lat="14.173372">
                <ele>279.400269</ele>
                <time>2007-06-30T07:37:05Z</time>
            </trkpt>
            <trkpt lon="101.925144" lat="14.173479">
                <ele>277.958252</ele>
                <time>2007-06-30T07:37:16Z</time>
            </trkpt>
            <trkpt lon="101.925380" lat="14.173586">
                <ele>274.593750</ele>
                <time>2007-06-30T07:37:28Z</time>
            </trkpt>
            <trkpt lon="101.925616" lat="14.173565">
                <ele>270.267700</ele>
                <time>2007-06-30T07:37:40Z</time>
            </trkpt>
            <trkpt lon="101.925938" lat="14.173479">
                <ele>264.980591</ele>
                <time>2007-06-30T07:37:52Z</time>
            </trkpt>
            <trkpt lon="101.926174" lat="14.173222">
                <ele>260.654541</ele>
                <time>2007-06-30T07:38:03Z</time>
            </trkpt>
            <trkpt lon="101.926131" lat="14.172943">
                <ele>259.212646</ele>
                <time>2007-06-30T07:38:13Z</time>
            </trkpt>
            <trkpt lon="101.926024" lat="14.172599">
                <ele>257.770752</ele>
                <time>2007-06-30T07:38:27Z</time>
            </trkpt>
            <trkpt lon="101.925960" lat="14.172449">
                <ele>257.290039</ele>
                <time>2007-06-30T07:38:38Z</time>
            </trkpt>
            <trkpt lon="101.925960" lat="14.172471">
                <ele>257.770752</ele>
                <time>2007-06-30T07:39:00Z</time>
            </trkpt>
            <trkpt lon="101.925960" lat="14.172471">
                <ele>257.770752</ele>
                <time>2007-06-30T07:39:21Z</time>
            </trkpt>
            <trkpt lon="101.925960" lat="14.172471">
                <ele>258.731934</ele>
                <time>2007-06-30T07:39:51Z</time>
            </trkpt>
            <trkpt lon="101.925960" lat="14.172471">
                <ele>255.367310</ele>
                <time>2007-06-30T07:40:27Z</time>
            </trkpt>
            <trkpt lon="101.925960" lat="14.172471">
                <ele>257.770752</ele>
                <time>2007-06-30T07:40:50Z</time>
            </trkpt>
            <trkpt lon="101.925981" lat="14.172449">
                <ele>257.290039</ele>
                <time>2007-06-30T07:41:57Z</time>
            </trkpt>
            <trkpt lon="101.925981" lat="14.172449">
                <ele>257.770752</ele>
                <time>2007-06-30T07:42:07Z</time>
            </trkpt>
            <trkpt lon="101.926153" lat="14.172213">
                <ele>253.925415</ele>
                <time>2007-06-30T07:42:19Z</time>
            </trkpt>
            <trkpt lon="101.926367" lat="14.171870">
                <ele>247.676758</ele>
                <time>2007-06-30T07:42:32Z</time>
            </trkpt>
            <trkpt lon="101.926410" lat="14.171569">
                <ele>243.350830</ele>
                <time>2007-06-30T07:42:42Z</time>
            </trkpt>
            <trkpt lon="101.926410" lat="14.171548">
                <ele>243.350830</ele>
                <time>2007-06-30T07:42:51Z</time>
            </trkpt>
            <trkpt lon="101.926517" lat="14.171269">
                <ele>240.947632</ele>
                <time>2007-06-30T07:43:02Z</time>
            </trkpt>
            <trkpt lon="101.926582" lat="14.170947">
                <ele>238.063599</ele>
                <time>2007-06-30T07:43:12Z</time>
            </trkpt>
            <trkpt lon="101.926517" lat="14.170732">
                <ele>236.140991</ele>
                <time>2007-06-30T07:43:19Z</time>
            </trkpt>
            <trkpt lon="101.926453" lat="14.170539">
                <ele>235.179688</ele>
                <time>2007-06-30T07:43:24Z</time>
            </trkpt>
            <trkpt lon="101.926346" lat="14.170175">
                <ele>233.257080</ele>
                <time>2007-06-30T07:43:32Z</time>
            </trkpt>
            <trkpt lon="101.926410" lat="14.169166">
                <ele>228.450439</ele>
                <time>2007-06-30T07:43:53Z</time>
            </trkpt>
            <trkpt lon="101.926432" lat="14.168994">
                <ele>227.969727</ele>
                <time>2007-06-30T07:43:57Z</time>
            </trkpt>
            <trkpt lon="101.926432" lat="14.168887">
                <ele>226.047119</ele>
                <time>2007-06-30T07:44:00Z</time>
            </trkpt>
            <trkpt lon="101.926475" lat="14.168222">
                <ele>219.798584</ele>
                <time>2007-06-30T07:44:15Z</time>
            </trkpt>
            <trkpt lon="101.926496" lat="14.167771">
                <ele>214.511230</ele>
                <time>2007-06-30T07:44:25Z</time>
            </trkpt>
            <trkpt lon="101.926453" lat="14.167535">
                <ele>211.146729</ele>
                <time>2007-06-30T07:44:30Z</time>
            </trkpt>
            <trkpt lon="101.926517" lat="14.166849">
                <ele>208.262817</ele>
                <time>2007-06-30T07:44:43Z</time>
            </trkpt>
            <trkpt lon="101.926453" lat="14.166398">
                <ele>205.378784</ele>
                <time>2007-06-30T07:44:52Z</time>
            </trkpt>
            <trkpt lon="101.926432" lat="14.166291">
                <ele>204.898071</ele>
                <time>2007-06-30T07:44:54Z</time>
            </trkpt>
            <trkpt lon="101.926453" lat="14.166205">
                <ele>203.936890</ele>
                <time>2007-06-30T07:44:56Z</time>
            </trkpt>
            <trkpt lon="101.926496" lat="14.165926">
                <ele>199.130127</ele>
                <time>2007-06-30T07:45:02Z</time>
            </trkpt>
            <trkpt lon="101.926389" lat="14.165626">
                <ele>194.804321</ele>
                <time>2007-06-30T07:45:09Z</time>
            </trkpt>
            <trkpt lon="101.926389" lat="14.165304">
                <ele>191.920288</ele>
                <time>2007-06-30T07:45:15Z</time>
            </trkpt>
            <trkpt lon="101.926389" lat="14.165089">
                <ele>189.036377</ele>
                <time>2007-06-30T07:45:19Z</time>
            </trkpt>
            <trkpt lon="101.926196" lat="14.164617">
                <ele>182.787842</ele>
                <time>2007-06-30T07:45:32Z</time>
            </trkpt>
            <trkpt lon="101.926153" lat="14.164553">
                <ele>181.345825</ele>
                <time>2007-06-30T07:45:34Z</time>
            </trkpt>
            <trkpt lon="101.926131" lat="14.164424">
                <ele>178.942627</ele>
                <time>2007-06-30T07:45:38Z</time>
            </trkpt>
            <trkpt lon="101.926239" lat="14.164274">
                <ele>177.020020</ele>
                <time>2007-06-30T07:45:45Z</time>
            </trkpt>
            <trkpt lon="101.926281" lat="14.163866">
                <ele>173.174683</ele>
                <time>2007-06-30T07:45:59Z</time>
            </trkpt>
            <trkpt lon="101.926153" lat="14.163566">
                <ele>171.252075</ele>
                <time>2007-06-30T07:46:12Z</time>
            </trkpt>
            <trkpt lon="101.925938" lat="14.163265">
                <ele>166.445312</ele>
                <time>2007-06-30T07:46:26Z</time>
            </trkpt>
            <trkpt lon="101.925874" lat="14.163029">
                <ele>161.638916</ele>
                <time>2007-06-30T07:46:35Z</time>
            </trkpt>
            <trkpt lon="101.925938" lat="14.162729">
                <ele>156.351562</ele>
                <time>2007-06-30T07:46:51Z</time>
            </trkpt>
            <trkpt lon="101.925788" lat="14.162514">
                <ele>152.025757</ele>
                <time>2007-06-30T07:47:06Z</time>
            </trkpt>
            <trkpt lon="101.925788" lat="14.162278">
                <ele>147.218994</ele>
                <time>2007-06-30T07:47:20Z</time>
            </trkpt>
            <trkpt lon="101.925745" lat="14.162149">
                <ele>144.335205</ele>
                <time>2007-06-30T07:47:30Z</time>
            </trkpt>
            <trkpt lon="101.925788" lat="14.161913">
                <ele>139.528442</ele>
                <time>2007-06-30T07:47:47Z</time>
            </trkpt>
            <trkpt lon="101.925852" lat="14.161549">
                <ele>136.163940</ele>
                <time>2007-06-30T07:48:01Z</time>
            </trkpt>
            <trkpt lon="101.925895" lat="14.161162">
                <ele>133.279907</ele>
                <time>2007-06-30T07:48:14Z</time>
            </trkpt>
            <trkpt lon="101.925895" lat="14.161119">
                <ele>132.799316</ele>
                <time>2007-06-30T07:48:16Z</time>
            </trkpt>
            <trkpt lon="101.925809" lat="14.160969">
                <ele>131.837891</ele>
                <time>2007-06-30T07:48:22Z</time>
            </trkpt>
            <trkpt lon="101.925766" lat="14.160669">
                <ele>132.318604</ele>
                <time>2007-06-30T07:48:36Z</time>
            </trkpt>
            <trkpt lon="101.925852" lat="14.160347">
                <ele>133.279907</ele>
                <time>2007-06-30T07:48:58Z</time>
            </trkpt>
            <trkpt lon="101.925895" lat="14.160132">
                <ele>128.473389</ele>
                <time>2007-06-30T07:49:19Z</time>
            </trkpt>
            <trkpt lon="101.925938" lat="14.160089">
                <ele>124.147339</ele>
                <time>2007-06-30T07:50:27Z</time>
            </trkpt>
            <trkpt lon="101.925938" lat="14.160068">
                <ele>123.186157</ele>
                <time>2007-06-30T07:51:36Z</time>
            </trkpt>
            <trkpt lon="101.925917" lat="14.159982">
                <ele>116.937500</ele>
                <time>2007-06-30T07:51:57Z</time>
            </trkpt>
            <trkpt lon="101.925917" lat="14.159939">
                <ele>115.495605</ele>
                <time>2007-06-30T07:51:59Z</time>
            </trkpt>
            <trkpt lon="101.925895" lat="14.159896">
                <ele>114.053589</ele>
                <time>2007-06-30T07:52:02Z</time>
            </trkpt>
            <trkpt lon="101.925960" lat="14.159746">
                <ele>113.572998</ele>
                <time>2007-06-30T07:52:10Z</time>
            </trkpt>
            <trkpt lon="101.926003" lat="14.159424">
                <ele>110.688843</ele>
                <time>2007-06-30T07:52:22Z</time>
            </trkpt>
            <trkpt lon="101.926153" lat="14.159124">
                <ele>102.517700</ele>
                <time>2007-06-30T07:52:40Z</time>
            </trkpt>
            <trkpt lon="101.926603" lat="14.158781">
                <ele>96.749878</ele>
                <time>2007-06-30T07:53:02Z</time>
            </trkpt>
            <trkpt lon="101.927247" lat="14.158716">
                <ele>93.865845</ele>
                <time>2007-06-30T07:53:20Z</time>
            </trkpt>
            <trkpt lon="101.927655" lat="14.158609">
                <ele>93.865845</ele>
                <time>2007-06-30T07:53:33Z</time>
            </trkpt>
            <trkpt lon="101.927612" lat="14.158609">
                <ele>93.865845</ele>
                <time>2007-06-30T07:53:37Z</time>
            </trkpt>
            <trkpt lon="101.927505" lat="14.158373">
                <ele>92.423950</ele>
                <time>2007-06-30T07:53:50Z</time>
            </trkpt>
            <trkpt lon="101.927569" lat="14.158244">
                <ele>87.617188</ele>
                <time>2007-06-30T07:53:57Z</time>
            </trkpt>
            <trkpt lon="101.927676" lat="14.158137">
                <ele>86.656006</ele>
                <time>2007-06-30T07:54:16Z</time>
            </trkpt>
            <trkpt lon="101.927698" lat="14.158030">
                <ele>80.407471</ele>
                <time>2007-06-30T07:55:02Z</time>
            </trkpt>
            <trkpt lon="101.927783" lat="14.158008">
                <ele>77.523438</ele>
                <time>2007-06-30T07:55:23Z</time>
            </trkpt>
            <trkpt lon="101.927826" lat="14.157987">
                <ele>78.004028</ele>
                <time>2007-06-30T07:55:38Z</time>
            </trkpt>
            <trkpt lon="101.927848" lat="14.157987">
                <ele>77.042847</ele>
                <time>2007-06-30T07:55:54Z</time>
            </trkpt>
            <trkpt lon="101.927891" lat="14.157944">
                <ele>78.004028</ele>
                <time>2007-06-30T07:56:14Z</time>
            </trkpt>
            <trkpt lon="101.927977" lat="14.157836">
                <ele>77.042847</ele>
                <time>2007-06-30T07:56:31Z</time>
            </trkpt>
            <trkpt lon="101.927998" lat="14.157836">
                <ele>75.600830</ele>
                <time>2007-06-30T07:56:50Z</time>
            </trkpt>
            <trkpt lon="101.928020" lat="14.157836">
                <ele>75.600830</ele>
                <time>2007-06-30T07:56:55Z</time>
            </trkpt>
            <trkpt lon="101.928213" lat="14.157794">
                <ele>75.600830</ele>
                <time>2007-06-30T07:57:06Z</time>
            </trkpt>
            <trkpt lon="101.928406" lat="14.157557">
                <ele>75.600830</ele>
                <time>2007-06-30T07:57:22Z</time>
            </trkpt>
            <trkpt lon="101.928449" lat="14.157257">
                <ele>78.965454</ele>
                <time>2007-06-30T07:57:41Z</time>
            </trkpt>
            <trkpt lon="101.928599" lat="14.157000">
                <ele>81.368774</ele>
                <time>2007-06-30T07:58:03Z</time>
            </trkpt>
            <trkpt lon="101.928620" lat="14.156957">
                <ele>84.252686</ele>
                <time>2007-06-30T07:58:18Z</time>
            </trkpt>
            <trkpt lon="101.928663" lat="14.156978">
                <ele>86.656006</ele>
                <time>2007-06-30T07:59:13Z</time>
            </trkpt>
            <trkpt lon="101.928792" lat="14.156635">
                <ele>84.733398</ele>
                <time>2007-06-30T07:59:28Z</time>
            </trkpt>
            <trkpt lon="101.928942" lat="14.156334">
                <ele>84.252686</ele>
                <time>2007-06-30T07:59:43Z</time>
            </trkpt>
            <trkpt lon="101.929071" lat="14.155884">
                <ele>85.213989</ele>
                <time>2007-06-30T07:59:57Z</time>
            </trkpt>
            <trkpt lon="101.929114" lat="14.155605">
                <ele>87.136597</ele>
                <time>2007-06-30T08:00:10Z</time>
            </trkpt>
            <trkpt lon="101.929307" lat="14.155176">
                <ele>88.098022</ele>
                <time>2007-06-30T08:00:25Z</time>
            </trkpt>
            <trkpt lon="101.929457" lat="14.154661">
                <ele>89.059326</ele>
                <time>2007-06-30T08:00:40Z</time>
            </trkpt>
            <trkpt lon="101.929479" lat="14.154553">
                <ele>89.539917</ele>
                <time>2007-06-30T08:00:43Z</time>
            </trkpt>
            <trkpt lon="101.929500" lat="14.154103">
                <ele>90.501343</ele>
                <time>2007-06-30T08:00:57Z</time>
            </trkpt>
            <trkpt lon="101.929586" lat="14.153759">
                <ele>96.749878</ele>
                <time>2007-06-30T08:01:15Z</time>
            </trkpt>
            <trkpt lon="101.929564" lat="14.153438">
                <ele>98.672485</ele>
                <time>2007-06-30T08:01:32Z</time>
            </trkpt>
            <trkpt lon="101.929522" lat="14.153051">
                <ele>100.114502</ele>
                <time>2007-06-30T08:01:50Z</time>
            </trkpt>
            <trkpt lon="101.929500" lat="14.152794">
                <ele>99.633789</ele>
                <time>2007-06-30T08:02:00Z</time>
            </trkpt>
            <trkpt lon="101.929522" lat="14.152772">
                <ele>99.633789</ele>
                <time>2007-06-30T08:02:02Z</time>
            </trkpt>
            <trkpt lon="101.929607" lat="14.152751">
                <ele>101.075684</ele>
                <time>2007-06-30T08:02:08Z</time>
            </trkpt>
            <trkpt lon="101.929886" lat="14.152772">
                <ele>106.363037</ele>
                <time>2007-06-30T08:02:27Z</time>
            </trkpt>
            <trkpt lon="101.930058" lat="14.152558">
                <ele>106.843628</ele>
                <time>2007-06-30T08:02:45Z</time>
            </trkpt>
            <trkpt lon="101.930079" lat="14.152172">
                <ele>105.401733</ele>
                <time>2007-06-30T08:03:01Z</time>
            </trkpt>
            <trkpt lon="101.930101" lat="14.152000">
                <ele>103.479004</ele>
                <time>2007-06-30T08:03:13Z</time>
            </trkpt>
            <trkpt lon="101.930058" lat="14.152000">
                <ele>104.921021</ele>
                <time>2007-06-30T08:03:24Z</time>
            </trkpt>
            <trkpt lon="101.930079" lat="14.151978">
                <ele>107.324341</ele>
                <time>2007-06-30T08:04:09Z</time>
            </trkpt>
            <trkpt lon="101.930058" lat="14.151978">
                <ele>111.169556</ele>
                <time>2007-06-30T08:08:32Z</time>
            </trkpt>
            <trkpt lon="101.930037" lat="14.151957">
                <ele>105.401733</ele>
                <time>2007-06-30T08:09:32Z</time>
            </trkpt>
            <trkpt lon="101.930015" lat="14.151936">
                <ele>104.440430</ele>
                <time>2007-06-30T08:09:58Z</time>
            </trkpt>
            <trkpt lon="101.929994" lat="14.151914">
                <ele>105.401733</ele>
                <time>2007-06-30T08:12:22Z</time>
            </trkpt>
            <trkpt lon="101.930079" lat="14.151957">
                <ele>108.285645</ele>
                <time>2007-06-30T08:26:27Z</time>
            </trkpt>
            <trkpt lon="101.930101" lat="14.151936">
                <ele>107.324341</ele>
                <time>2007-06-30T08:26:51Z</time>
            </trkpt>
            <trkpt lon="101.930122" lat="14.151850">
                <ele>108.285645</ele>
                <time>2007-06-30T08:27:04Z</time>
            </trkpt>
            <trkpt lon="101.930294" lat="14.151657">
                <ele>107.324341</ele>
                <time>2007-06-30T08:27:22Z</time>
            </trkpt>
            <trkpt lon="101.930509" lat="14.151549">
                <ele>107.324341</ele>
                <time>2007-06-30T08:27:37Z</time>
            </trkpt>
            <trkpt lon="101.930788" lat="14.151313">
                <ele>108.285645</ele>
                <time>2007-06-30T08:27:56Z</time>
            </trkpt>
            <trkpt lon="101.931067" lat="14.151142">
                <ele>107.805054</ele>
                <time>2007-06-30T08:28:09Z</time>
            </trkpt>
            <trkpt lon="101.931517" lat="14.151077">
                <ele>106.363037</ele>
                <time>2007-06-30T08:28:23Z</time>
            </trkpt>
            <trkpt lon="101.931989" lat="14.151056">
                <ele>104.921021</ele>
                <time>2007-06-30T08:28:42Z</time>
            </trkpt>
            <trkpt lon="101.932440" lat="14.150777">
                <ele>104.921021</ele>
                <time>2007-06-30T08:28:59Z</time>
            </trkpt>
            <trkpt lon="101.932976" lat="14.150712">
                <ele>104.440430</ele>
                <time>2007-06-30T08:29:16Z</time>
            </trkpt>
            <trkpt lon="101.933362" lat="14.150691">
                <ele>102.998291</ele>
                <time>2007-06-30T08:29:29Z</time>
            </trkpt>
            <trkpt lon="101.933813" lat="14.150863">
                <ele>101.075684</ele>
                <time>2007-06-30T08:29:44Z</time>
            </trkpt>
            <trkpt lon="101.934178" lat="14.151077">
                <ele>99.633789</ele>
                <time>2007-06-30T08:29:57Z</time>
            </trkpt>
            <trkpt lon="101.934435" lat="14.151185">
                <ele>100.114502</ele>
                <time>2007-06-30T08:30:09Z</time>
            </trkpt>
            <trkpt lon="101.934779" lat="14.151335">
                <ele>100.595093</ele>
                <time>2007-06-30T08:30:22Z</time>
            </trkpt>
            <trkpt lon="101.935101" lat="14.151442">
                <ele>100.114502</ele>
                <time>2007-06-30T08:30:34Z</time>
            </trkpt>
            <trkpt lon="101.935594" lat="14.151571">
                <ele>100.114502</ele>
                <time>2007-06-30T08:30:53Z</time>
            </trkpt>
            <trkpt lon="101.935980" lat="14.151549">
                <ele>100.114502</ele>
                <time>2007-06-30T08:31:06Z</time>
            </trkpt>
            <trkpt lon="101.936259" lat="14.151464">
                <ele>100.595093</ele>
                <time>2007-06-30T08:31:19Z</time>
            </trkpt>
            <trkpt lon="101.936581" lat="14.151399">
                <ele>102.517700</ele>
                <time>2007-06-30T08:31:35Z</time>
            </trkpt>
            <trkpt lon="101.936839" lat="14.151356">
                <ele>103.959717</ele>
                <time>2007-06-30T08:31:46Z</time>
            </trkpt>
            <trkpt lon="101.937160" lat="14.151399">
                <ele>104.921021</ele>
                <time>2007-06-30T08:32:00Z</time>
            </trkpt>
            <trkpt lon="101.937418" lat="14.151592">
                <ele>105.882446</ele>
                <time>2007-06-30T08:32:13Z</time>
            </trkpt>
            <trkpt lon="101.937697" lat="14.151657">
                <ele>106.843628</ele>
                <time>2007-06-30T08:32:23Z</time>
            </trkpt>
            <trkpt lon="101.938148" lat="14.151270">
                <ele>107.805054</ele>
                <time>2007-06-30T08:32:40Z</time>
            </trkpt>
            <trkpt lon="101.938255" lat="14.151206">
                <ele>108.285645</ele>
                <time>2007-06-30T08:32:43Z</time>
            </trkpt>
            <trkpt lon="101.938555" lat="14.151120">
                <ele>107.324341</ele>
                <time>2007-06-30T08:32:50Z</time>
            </trkpt>
            <trkpt lon="101.938598" lat="14.150949">
                <ele>106.363037</ele>
                <time>2007-06-30T08:32:54Z</time>
            </trkpt>
            <trkpt lon="101.938577" lat="14.150863">
                <ele>106.363037</ele>
                <time>2007-06-30T08:32:56Z</time>
            </trkpt>
            <trkpt lon="101.938426" lat="14.150326">
                <ele>102.998291</ele>
                <time>2007-06-30T08:33:06Z</time>
            </trkpt>
            <trkpt lon="101.938405" lat="14.150176">
                <ele>103.479004</ele>
                <time>2007-06-30T08:33:09Z</time>
            </trkpt>
            <trkpt lon="101.938362" lat="14.150004">
                <ele>103.479004</ele>
                <time>2007-06-30T08:33:16Z</time>
            </trkpt>
            <trkpt lon="101.938062" lat="14.149983">
                <ele>101.556396</ele>
                <time>2007-06-30T08:33:26Z</time>
            </trkpt>
            <trkpt lon="101.938019" lat="14.149768">
                <ele>102.037109</ele>
                <time>2007-06-30T08:33:35Z</time>
            </trkpt>
            <trkpt lon="101.938126" lat="14.149704">
                <ele>102.517700</ele>
                <time>2007-06-30T08:33:39Z</time>
            </trkpt>
            <trkpt lon="101.938448" lat="14.149468">
                <ele>103.479004</ele>
                <time>2007-06-30T08:33:51Z</time>
            </trkpt>
            <trkpt lon="101.938684" lat="14.149404">
                <ele>104.921021</ele>
                <time>2007-06-30T08:34:06Z</time>
            </trkpt>
            <trkpt lon="101.938770" lat="14.149382">
                <ele>104.921021</ele>
                <time>2007-06-30T08:34:21Z</time>
            </trkpt>
            <trkpt lon="101.938770" lat="14.149382">
                <ele>104.440430</ele>
                <time>2007-06-30T08:34:27Z</time>
            </trkpt>
            <trkpt lon="101.938791" lat="14.149339">
                <ele>104.921021</ele>
                <time>2007-06-30T08:34:43Z</time>
            </trkpt>
            <trkpt lon="101.938813" lat="14.149296">
                <ele>104.440430</ele>
                <time>2007-06-30T08:35:05Z</time>
            </trkpt>
            <trkpt lon="101.938834" lat="14.149232">
                <ele>104.921021</ele>
                <time>2007-06-30T08:35:42Z</time>
            </trkpt>
            <trkpt lon="101.938877" lat="14.149189">
                <ele>104.921021</ele>
                <time>2007-06-30T08:35:53Z</time>
            </trkpt>
            <trkpt lon="101.938877" lat="14.149168">
                <ele>104.440430</ele>
                <time>2007-06-30T08:36:06Z</time>
            </trkpt>
            <trkpt lon="101.938963" lat="14.149146">
                <ele>114.534180</ele>
                <time>2007-06-30T08:37:38Z</time>
            </trkpt>
            <trkpt lon="101.938963" lat="14.149189">
                <ele>113.572998</ele>
                <time>2007-06-30T08:38:58Z</time>
            </trkpt>
            <trkpt lon="101.939070" lat="14.149189">
                <ele>110.208252</ele>
                <time>2007-06-30T08:39:12Z</time>
            </trkpt>
            <trkpt lon="101.939242" lat="14.149275">
                <ele>110.208252</ele>
                <time>2007-06-30T08:39:26Z</time>
            </trkpt>
            <trkpt lon="101.939478" lat="14.149404">
                <ele>109.727661</ele>
                <time>2007-06-30T08:39:38Z</time>
            </trkpt>
            <trkpt lon="101.939478" lat="14.149425">
                <ele>109.246948</ele>
                <time>2007-06-30T08:39:40Z</time>
            </trkpt>
            <trkpt lon="101.939564" lat="14.149425">
                <ele>109.727661</ele>
                <time>2007-06-30T08:39:46Z</time>
            </trkpt>
            <trkpt lon="101.939650" lat="14.149446">
                <ele>110.208252</ele>
                <time>2007-06-30T08:39:51Z</time>
            </trkpt>
            <trkpt lon="101.939692" lat="14.149404">
                <ele>109.727661</ele>
                <time>2007-06-30T08:39:56Z</time>
            </trkpt>
            <trkpt lon="101.939757" lat="14.149103">
                <ele>108.766235</ele>
                <time>2007-06-30T08:40:09Z</time>
            </trkpt>
            <trkpt lon="101.939735" lat="14.148717">
                <ele>107.805054</ele>
                <time>2007-06-30T08:40:24Z</time>
            </trkpt>
            <trkpt lon="101.939607" lat="14.148438">
                <ele>106.363037</ele>
                <time>2007-06-30T08:40:41Z</time>
            </trkpt>
            <trkpt lon="101.939414" lat="14.148116">
                <ele>109.246948</ele>
                <time>2007-06-30T08:41:01Z</time>
            </trkpt>
            <trkpt lon="101.939371" lat="14.148116">
                <ele>110.208252</ele>
                <time>2007-06-30T08:41:03Z</time>
            </trkpt>
            <trkpt lon="101.939285" lat="14.148159">
                <ele>111.169556</ele>
                <time>2007-06-30T08:41:08Z</time>
            </trkpt>
            <trkpt lon="101.939006" lat="14.148309">
                <ele>116.456787</ele>
                <time>2007-06-30T08:41:27Z</time>
            </trkpt>
            <trkpt lon="101.938684" lat="14.148309">
                <ele>121.263550</ele>
                <time>2007-06-30T08:41:49Z</time>
            </trkpt>
            <trkpt lon="101.938663" lat="14.148309">
                <ele>121.263550</ele>
                <time>2007-06-30T08:41:51Z</time>
            </trkpt>
            <trkpt lon="101.938577" lat="14.148138">
                <ele>123.186157</ele>
                <time>2007-06-30T08:42:07Z</time>
            </trkpt>
            <trkpt lon="101.938491" lat="14.147966">
                <ele>125.589355</ele>
                <time>2007-06-30T08:42:24Z</time>
            </trkpt>
            <trkpt lon="101.938426" lat="14.147730">
                <ele>128.954102</ele>
                <time>2007-06-30T08:42:42Z</time>
            </trkpt>
            <trkpt lon="101.938362" lat="14.147537">
                <ele>132.318604</ele>
                <time>2007-06-30T08:42:59Z</time>
            </trkpt>
            <trkpt lon="101.938255" lat="14.147344">
                <ele>133.760498</ele>
                <time>2007-06-30T08:43:16Z</time>
            </trkpt>
            <trkpt lon="101.938019" lat="14.146979">
                <ele>131.357300</ele>
                <time>2007-06-30T08:43:33Z</time>
            </trkpt>
            <trkpt lon="101.937783" lat="14.146550">
                <ele>129.434692</ele>
                <time>2007-06-30T08:43:46Z</time>
            </trkpt>
            <trkpt lon="101.937869" lat="14.146442">
                <ele>129.915283</ele>
                <time>2007-06-30T08:43:55Z</time>
            </trkpt>
            <trkpt lon="101.937847" lat="14.146421">
                <ele>131.357300</ele>
                <time>2007-06-30T08:44:11Z</time>
            </trkpt>
            <trkpt lon="101.937761" lat="14.146550">
                <ele>131.357300</ele>
                <time>2007-06-30T08:44:20Z</time>
            </trkpt>
            <trkpt lon="101.937783" lat="14.146550">
                <ele>131.357300</ele>
                <time>2007-06-30T08:44:34Z</time>
            </trkpt>
            <trkpt lon="101.937826" lat="14.146421">
                <ele>129.915283</ele>
                <time>2007-06-30T08:44:45Z</time>
            </trkpt>
            <trkpt lon="101.938233" lat="14.145992">
                <ele>127.992554</ele>
                <time>2007-06-30T08:44:59Z</time>
            </trkpt>
            <trkpt lon="101.938813" lat="14.145305">
                <ele>128.473389</ele>
                <time>2007-06-30T08:45:19Z</time>
            </trkpt>
            <trkpt lon="101.939135" lat="14.145241">
                <ele>129.915283</ele>
                <time>2007-06-30T08:45:35Z</time>
            </trkpt>
            <trkpt lon="101.939478" lat="14.145370">
                <ele>133.760498</ele>
                <time>2007-06-30T08:45:56Z</time>
            </trkpt>
            <trkpt lon="101.939800" lat="14.145412">
                <ele>134.721924</ele>
                <time>2007-06-30T08:46:17Z</time>
            </trkpt>
            <trkpt lon="101.940401" lat="14.145541">
                <ele>136.163940</ele>
                <time>2007-06-30T08:46:40Z</time>
            </trkpt>
            <trkpt lon="101.940937" lat="14.145648">
                <ele>136.163940</ele>
                <time>2007-06-30T08:47:02Z</time>
            </trkpt>
            <trkpt lon="101.941044" lat="14.145842">
                <ele>140.009155</ele>
                <time>2007-06-30T08:47:16Z</time>
            </trkpt>
            <trkpt lon="101.940937" lat="14.146142">
                <ele>140.970459</ele>
                <time>2007-06-30T08:47:27Z</time>
            </trkpt>
            <trkpt lon="101.941044" lat="14.146249">
                <ele>142.412476</ele>
                <time>2007-06-30T08:47:33Z</time>
            </trkpt>
            <trkpt lon="101.941409" lat="14.146378">
                <ele>147.218994</ele>
                <time>2007-06-30T08:47:53Z</time>
            </trkpt>
            <trkpt lon="101.941667" lat="14.146528">
                <ele>147.699707</ele>
                <time>2007-06-30T08:48:07Z</time>
            </trkpt>
            <trkpt lon="101.941967" lat="14.146593">
                <ele>150.103027</ele>
                <time>2007-06-30T08:48:23Z</time>
            </trkpt>
            <trkpt lon="101.942289" lat="14.146700">
                <ele>152.986938</ele>
                <time>2007-06-30T08:48:41Z</time>
            </trkpt>
            <trkpt lon="101.942546" lat="14.146829">
                <ele>156.351562</ele>
                <time>2007-06-30T08:48:57Z</time>
            </trkpt>
            <trkpt lon="101.942847" lat="14.146914">
                <ele>159.716187</ele>
                <time>2007-06-30T08:49:15Z</time>
            </trkpt>
            <trkpt lon="101.943104" lat="14.146914">
                <ele>162.119507</ele>
                <time>2007-06-30T08:49:32Z</time>
            </trkpt>
            <trkpt lon="101.943383" lat="14.146936">
                <ele>164.522705</ele>
                <time>2007-06-30T08:49:47Z</time>
            </trkpt>
            <trkpt lon="101.943684" lat="14.146957">
                <ele>167.887329</ele>
                <time>2007-06-30T08:50:05Z</time>
            </trkpt>
            <trkpt lon="101.944005" lat="14.146957">
                <ele>169.329468</ele>
                <time>2007-06-30T08:50:21Z</time>
            </trkpt>
            <trkpt lon="101.944306" lat="14.146914">
                <ele>173.655273</ele>
                <time>2007-06-30T08:50:39Z</time>
            </trkpt>
            <trkpt lon="101.944542" lat="14.146850">
                <ele>176.058594</ele>
                <time>2007-06-30T08:50:56Z</time>
            </trkpt>
            <trkpt lon="101.944864" lat="14.146764">
                <ele>178.461914</ele>
                <time>2007-06-30T08:51:17Z</time>
            </trkpt>
            <trkpt lon="101.945250" lat="14.146657">
                <ele>180.865234</ele>
                <time>2007-06-30T08:51:37Z</time>
            </trkpt>
            <trkpt lon="101.945508" lat="14.146550">
                <ele>182.787842</ele>
                <time>2007-06-30T08:51:52Z</time>
            </trkpt>
            <trkpt lon="101.945808" lat="14.146464">
                <ele>184.710571</ele>
                <time>2007-06-30T08:52:09Z</time>
            </trkpt>
            <trkpt lon="101.946173" lat="14.146357">
                <ele>187.594360</ele>
                <time>2007-06-30T08:52:29Z</time>
            </trkpt>
            <trkpt lon="101.946645" lat="14.146228">
                <ele>189.036377</ele>
                <time>2007-06-30T08:52:48Z</time>
            </trkpt>
            <trkpt lon="101.946902" lat="14.146099">
                <ele>192.401123</ele>
                <time>2007-06-30T08:53:02Z</time>
            </trkpt>
            <trkpt lon="101.947203" lat="14.145842">
                <ele>193.843018</ele>
                <time>2007-06-30T08:53:17Z</time>
            </trkpt>
            <trkpt lon="101.947653" lat="14.145412">
                <ele>193.843018</ele>
                <time>2007-06-30T08:53:33Z</time>
            </trkpt>
            <trkpt lon="101.947803" lat="14.145262">
                <ele>193.362305</ele>
                <time>2007-06-30T08:53:39Z</time>
            </trkpt>
            <trkpt lon="101.947825" lat="14.145048">
                <ele>191.920288</ele>
                <time>2007-06-30T08:53:45Z</time>
            </trkpt>
            <trkpt lon="101.947782" lat="14.144661">
                <ele>189.997681</ele>
                <time>2007-06-30T08:53:53Z</time>
            </trkpt>
            <trkpt lon="101.947782" lat="14.144404">
                <ele>189.036377</ele>
                <time>2007-06-30T08:53:59Z</time>
            </trkpt>
            <trkpt lon="101.947761" lat="14.143696">
                <ele>187.594360</ele>
                <time>2007-06-30T08:54:15Z</time>
            </trkpt>
            <trkpt lon="101.947718" lat="14.143159">
                <ele>186.152466</ele>
                <time>2007-06-30T08:54:31Z</time>
            </trkpt>
            <trkpt lon="101.947610" lat="14.142795">
                <ele>185.191162</ele>
                <time>2007-06-30T08:54:46Z</time>
            </trkpt>
            <trkpt lon="101.947460" lat="14.142301">
                <ele>186.633179</ele>
                <time>2007-06-30T08:55:01Z</time>
            </trkpt>
            <trkpt lon="101.947160" lat="14.141829">
                <ele>184.229858</ele>
                <time>2007-06-30T08:55:13Z</time>
            </trkpt>
            <trkpt lon="101.947031" lat="14.141507">
                <ele>182.787842</ele>
                <time>2007-06-30T08:55:19Z</time>
            </trkpt>
            <trkpt lon="101.946924" lat="14.141314">
                <ele>181.826416</ele>
                <time>2007-06-30T08:55:23Z</time>
            </trkpt>
            <trkpt lon="101.946752" lat="14.141164">
                <ele>180.865234</ele>
                <time>2007-06-30T08:55:27Z</time>
            </trkpt>
            <trkpt lon="101.946473" lat="14.141035">
                <ele>178.942627</ele>
                <time>2007-06-30T08:55:32Z</time>
            </trkpt>
            <trkpt lon="101.946259" lat="14.140799">
                <ele>176.539307</ele>
                <time>2007-06-30T08:55:38Z</time>
            </trkpt>
            <trkpt lon="101.945808" lat="14.140584">
                <ele>174.616577</ele>
                <time>2007-06-30T08:55:52Z</time>
            </trkpt>
            <trkpt lon="101.945593" lat="14.140499">
                <ele>174.135864</ele>
                <time>2007-06-30T08:55:58Z</time>
            </trkpt>
            <trkpt lon="101.944993" lat="14.139898">
                <ele>169.329468</ele>
                <time>2007-06-30T08:56:13Z</time>
            </trkpt>
            <trkpt lon="101.944242" lat="14.139018">
                <ele>163.080811</ele>
                <time>2007-06-30T08:56:25Z</time>
            </trkpt>
            <trkpt lon="101.943684" lat="14.138460">
                <ele>158.754761</ele>
                <time>2007-06-30T08:56:34Z</time>
            </trkpt>
            <trkpt lon="101.943190" lat="14.137816">
                <ele>151.064209</ele>
                <time>2007-06-30T08:56:45Z</time>
            </trkpt>
            <trkpt lon="101.942568" lat="14.137001">
                <ele>139.528442</ele>
                <time>2007-06-30T08:56:59Z</time>
            </trkpt>
            <trkpt lon="101.942139" lat="14.136486">
                <ele>134.721924</ele>
                <time>2007-06-30T08:57:10Z</time>
            </trkpt>
            <trkpt lon="101.942117" lat="14.136465">
                <ele>133.760498</ele>
                <time>2007-06-30T08:57:20Z</time>
            </trkpt>
            <trkpt lon="101.942096" lat="14.136422">
                <ele>127.511963</ele>
                <time>2007-06-30T08:57:54Z</time>
            </trkpt>
            <trkpt lon="101.942031" lat="14.136314">
                <ele>126.550659</ele>
                <time>2007-06-30T08:58:10Z</time>
            </trkpt>
            <trkpt lon="101.942010" lat="14.136229">
                <ele>127.992554</ele>
                <time>2007-06-30T08:58:25Z</time>
            </trkpt>
            <trkpt lon="101.942010" lat="14.136035">
                <ele>127.992554</ele>
                <time>2007-06-30T08:58:42Z</time>
            </trkpt>
            <trkpt lon="101.941988" lat="14.135542">
                <ele>129.434692</ele>
                <time>2007-06-30T08:59:00Z</time>
            </trkpt>
            <trkpt lon="101.941817" lat="14.135005">
                <ele>128.473389</ele>
                <time>2007-06-30T08:59:15Z</time>
            </trkpt>
            <trkpt lon="101.941409" lat="14.134512">
                <ele>125.589355</ele>
                <time>2007-06-30T08:59:28Z</time>
            </trkpt>
            <trkpt lon="101.941259" lat="14.134319">
                <ele>126.069946</ele>
                <time>2007-06-30T08:59:37Z</time>
            </trkpt>
            <trkpt lon="101.941130" lat="14.134126">
                <ele>127.511963</ele>
                <time>2007-06-30T08:59:52Z</time>
            </trkpt>
            <trkpt lon="101.941130" lat="14.134126">
                <ele>127.031372</ele>
                <time>2007-06-30T08:59:59Z</time>
            </trkpt>
            <trkpt lon="101.941044" lat="14.133804">
                <ele>124.147339</ele>
                <time>2007-06-30T09:00:11Z</time>
            </trkpt>
            <trkpt lon="101.940958" lat="14.133546">
                <ele>119.340820</ele>
                <time>2007-06-30T09:00:20Z</time>
            </trkpt>
            <trkpt lon="101.941087" lat="14.133461">
                <ele>117.418213</ele>
                <time>2007-06-30T09:00:25Z</time>
            </trkpt>
            <trkpt lon="101.941431" lat="14.133139">
                <ele>113.572998</ele>
                <time>2007-06-30T09:00:37Z</time>
            </trkpt>
            <trkpt lon="101.941538" lat="14.132946">
                <ele>112.130981</ele>
                <time>2007-06-30T09:00:42Z</time>
            </trkpt>
            <trkpt lon="101.941559" lat="14.132581">
                <ele>108.285645</ele>
                <time>2007-06-30T09:00:53Z</time>
            </trkpt>
            <trkpt lon="101.941559" lat="14.132388">
                <ele>105.882446</ele>
                <time>2007-06-30T09:00:59Z</time>
            </trkpt>
            <trkpt lon="101.941388" lat="14.132087">
                <ele>102.998291</ele>
                <time>2007-06-30T09:01:07Z</time>
            </trkpt>
            <trkpt lon="101.941173" lat="14.132001">
                <ele>101.075684</ele>
                <time>2007-06-30T09:01:13Z</time>
            </trkpt>
            <trkpt lon="101.941023" lat="14.131851">
                <ele>99.153076</ele>
                <time>2007-06-30T09:01:18Z</time>
            </trkpt>
            <trkpt lon="101.940894" lat="14.131787">
                <ele>97.711182</ele>
                <time>2007-06-30T09:01:22Z</time>
            </trkpt>
            <trkpt lon="101.940658" lat="14.131701">
                <ele>95.307739</ele>
                <time>2007-06-30T09:01:31Z</time>
            </trkpt>
            <trkpt lon="101.940658" lat="14.131680">
                <ele>94.827148</ele>
                <time>2007-06-30T09:01:32Z</time>
            </trkpt>
            <trkpt lon="101.940594" lat="14.131486">
                <ele>93.865845</ele>
                <time>2007-06-30T09:01:37Z</time>
            </trkpt>
            <trkpt lon="101.940465" lat="14.131336">
                <ele>92.904541</ele>
                <time>2007-06-30T09:01:43Z</time>
            </trkpt>
            <trkpt lon="101.940057" lat="14.130843">
                <ele>90.501343</ele>
                <time>2007-06-30T09:01:58Z</time>
            </trkpt>
            <trkpt lon="101.939843" lat="14.130886">
                <ele>89.539917</ele>
                <time>2007-06-30T09:02:12Z</time>
            </trkpt>
            <trkpt lon="101.939564" lat="14.130950">
                <ele>90.020630</ele>
                <time>2007-06-30T09:02:32Z</time>
            </trkpt>
            <trkpt lon="101.939414" lat="14.130993">
                <ele>90.981934</ele>
                <time>2007-06-30T09:02:55Z</time>
            </trkpt>
            <trkpt lon="101.939392" lat="14.131143">
                <ele>94.346558</ele>
                <time>2007-06-30T09:03:12Z</time>
            </trkpt>
            <trkpt lon="101.939392" lat="14.131165">
                <ele>95.307739</ele>
                <time>2007-06-30T09:03:16Z</time>
            </trkpt>
            <trkpt lon="101.939371" lat="14.131401">
                <ele>98.191895</ele>
                <time>2007-06-30T09:03:42Z</time>
            </trkpt>
            <trkpt lon="101.939349" lat="14.131529">
                <ele>99.633789</ele>
                <time>2007-06-30T09:04:01Z</time>
            </trkpt>
            <trkpt lon="101.939328" lat="14.131680">
                <ele>101.075684</ele>
                <time>2007-06-30T09:04:24Z</time>
            </trkpt>
            <trkpt lon="101.939306" lat="14.131722">
                <ele>104.921021</ele>
                <time>2007-06-30T09:04:41Z</time>
            </trkpt>
            <trkpt lon="101.939263" lat="14.131765">
                <ele>105.401733</ele>
                <time>2007-06-30T09:04:51Z</time>
            </trkpt>
            <trkpt lon="101.939049" lat="14.131873">
                <ele>107.324341</ele>
                <time>2007-06-30T09:05:09Z</time>
            </trkpt>
            <trkpt lon="101.938770" lat="14.131873">
                <ele>105.882446</ele>
                <time>2007-06-30T09:05:26Z</time>
            </trkpt>
            <trkpt lon="101.938534" lat="14.131680">
                <ele>103.479004</ele>
                <time>2007-06-30T09:05:42Z</time>
            </trkpt>
            <trkpt lon="101.938491" lat="14.131658">
                <ele>102.037109</ele>
                <time>2007-06-30T09:05:49Z</time>
            </trkpt>
            <trkpt lon="101.938298" lat="14.131572">
                <ele>99.633789</ele>
                <time>2007-06-30T09:06:01Z</time>
            </trkpt>
            <trkpt lon="101.938212" lat="14.131508">
                <ele>100.114502</ele>
                <time>2007-06-30T09:06:15Z</time>
            </trkpt>
            <trkpt lon="101.938105" lat="14.131401">
                <ele>102.998291</ele>
                <time>2007-06-30T09:06:34Z</time>
            </trkpt>
            <trkpt lon="101.938062" lat="14.131336">
                <ele>102.998291</ele>
                <time>2007-06-30T09:06:53Z</time>
            </trkpt>
            <trkpt lon="101.937933" lat="14.130950">
                <ele>101.556396</ele>
                <time>2007-06-30T09:07:12Z</time>
            </trkpt>
            <trkpt lon="101.937912" lat="14.130671">
                <ele>103.479004</ele>
                <time>2007-06-30T09:07:27Z</time>
            </trkpt>
            <trkpt lon="101.937761" lat="14.130542">
                <ele>103.479004</ele>
                <time>2007-06-30T09:07:47Z</time>
            </trkpt>
            <trkpt lon="101.937654" lat="14.130456">
                <ele>105.401733</ele>
                <time>2007-06-30T09:08:06Z</time>
            </trkpt>
            <trkpt lon="101.937590" lat="14.130349">
                <ele>108.766235</ele>
                <time>2007-06-30T09:08:26Z</time>
            </trkpt>
            <trkpt lon="101.937504" lat="14.130306">
                <ele>111.169556</ele>
                <time>2007-06-30T09:08:47Z</time>
            </trkpt>
            <trkpt lon="101.937397" lat="14.130306">
                <ele>112.611572</ele>
                <time>2007-06-30T09:09:02Z</time>
            </trkpt>
            <trkpt lon="101.937289" lat="14.130328">
                <ele>115.014893</ele>
                <time>2007-06-30T09:09:22Z</time>
            </trkpt>
            <trkpt lon="101.937268" lat="14.130328">
                <ele>115.976196</ele>
                <time>2007-06-30T09:09:36Z</time>
            </trkpt>
            <trkpt lon="101.937203" lat="14.130113">
                <ele>115.976196</ele>
                <time>2007-06-30T09:09:54Z</time>
            </trkpt>
            <trkpt lon="101.936989" lat="14.129641">
                <ele>115.014893</ele>
                <time>2007-06-30T09:10:16Z</time>
            </trkpt>
            <trkpt lon="101.936860" lat="14.129019">
                <ele>110.208252</ele>
                <time>2007-06-30T09:10:33Z</time>
            </trkpt>
            <trkpt lon="101.936796" lat="14.128547">
                <ele>107.805054</ele>
                <time>2007-06-30T09:10:43Z</time>
            </trkpt>
            <trkpt lon="101.936774" lat="14.128289">
                <ele>103.959717</ele>
                <time>2007-06-30T09:10:50Z</time>
            </trkpt>
            <trkpt lon="101.936839" lat="14.128182">
                <ele>103.479004</ele>
                <time>2007-06-30T09:10:55Z</time>
            </trkpt>
            <trkpt lon="101.936924" lat="14.127967">
                <ele>102.037109</ele>
                <time>2007-06-30T09:11:02Z</time>
            </trkpt>
            <trkpt lon="101.936903" lat="14.127796">
                <ele>101.556396</ele>
                <time>2007-06-30T09:11:07Z</time>
            </trkpt>
            <trkpt lon="101.936839" lat="14.127560">
                <ele>100.114502</ele>
                <time>2007-06-30T09:11:14Z</time>
            </trkpt>
            <trkpt lon="101.936688" lat="14.127538">
                <ele>97.711182</ele>
                <time>2007-06-30T09:11:21Z</time>
            </trkpt>
            <trkpt lon="101.936259" lat="14.127474">
                <ele>93.865845</ele>
                <time>2007-06-30T09:11:35Z</time>
            </trkpt>
            <trkpt lon="101.935852" lat="14.127259">
                <ele>91.462524</ele>
                <time>2007-06-30T09:11:50Z</time>
            </trkpt>
            <trkpt lon="101.935508" lat="14.127045">
                <ele>88.578735</ele>
                <time>2007-06-30T09:12:04Z</time>
            </trkpt>
            <trkpt lon="101.935186" lat="14.126852">
                <ele>83.291382</ele>
                <time>2007-06-30T09:12:21Z</time>
            </trkpt>
            <trkpt lon="101.934993" lat="14.126616">
                <ele>83.771973</ele>
                <time>2007-06-30T09:12:35Z</time>
            </trkpt>
            <trkpt lon="101.935015" lat="14.126379">
                <ele>83.291382</ele>
                <time>2007-06-30T09:12:45Z</time>
            </trkpt>
            <trkpt lon="101.934929" lat="14.126015">
                <ele>81.368774</ele>
                <time>2007-06-30T09:13:00Z</time>
            </trkpt>
            <trkpt lon="101.934993" lat="14.125586">
                <ele>77.042847</ele>
                <time>2007-06-30T09:13:15Z</time>
            </trkpt>
            <trkpt lon="101.934865" lat="14.125156">
                <ele>73.197632</ele>
                <time>2007-06-30T09:13:27Z</time>
            </trkpt>
            <trkpt lon="101.934628" lat="14.124835">
                <ele>68.390869</ele>
                <time>2007-06-30T09:13:40Z</time>
            </trkpt>
            <trkpt lon="101.934457" lat="14.124620">
                <ele>64.065063</ele>
                <time>2007-06-30T09:13:51Z</time>
            </trkpt>
            <trkpt lon="101.934392" lat="14.124599">
                <ele>62.142334</ele>
                <time>2007-06-30T09:14:04Z</time>
            </trkpt>
            <trkpt lon="101.934350" lat="14.124577">
                <ele>58.777710</ele>
                <time>2007-06-30T09:14:42Z</time>
            </trkpt>
            <trkpt lon="101.934135" lat="14.124470">
                <ele>57.816528</ele>
                <time>2007-06-30T09:14:58Z</time>
            </trkpt>
            <trkpt lon="101.934135" lat="14.124448">
                <ele>57.816528</ele>
                <time>2007-06-30T09:15:01Z</time>
            </trkpt>
            <trkpt lon="101.934135" lat="14.124255">
                <ele>54.451782</ele>
                <time>2007-06-30T09:15:16Z</time>
            </trkpt>
            <trkpt lon="101.934135" lat="14.124212">
                <ele>54.451782</ele>
                <time>2007-06-30T09:15:19Z</time>
            </trkpt>
            <trkpt lon="101.934178" lat="14.124169">
                <ele>55.413086</ele>
                <time>2007-06-30T09:15:27Z</time>
            </trkpt>
            <trkpt lon="101.934199" lat="14.124105">
                <ele>54.932373</ele>
                <time>2007-06-30T09:15:33Z</time>
            </trkpt>
            <trkpt lon="101.934199" lat="14.123955">
                <ele>53.009766</ele>
                <time>2007-06-30T09:15:45Z</time>
            </trkpt>
            <trkpt lon="101.934114" lat="14.123890">
                <ele>53.490479</ele>
                <time>2007-06-30T09:15:50Z</time>
            </trkpt>
            <trkpt lon="101.934006" lat="14.123526">
                <ele>53.490479</ele>
                <time>2007-06-30T09:16:06Z</time>
            </trkpt>
            <trkpt lon="101.933856" lat="14.123268">
                <ele>51.087158</ele>
                <time>2007-06-30T09:16:17Z</time>
            </trkpt>
            <trkpt lon="101.933641" lat="14.122860">
                <ele>48.203369</ele>
                <time>2007-06-30T09:16:34Z</time>
            </trkpt>
            <trkpt lon="101.933491" lat="14.122753">
                <ele>45.799927</ele>
                <time>2007-06-30T09:16:49Z</time>
            </trkpt>
            <trkpt lon="101.933320" lat="14.122667">
                <ele>44.358032</ele>
                <time>2007-06-30T09:17:22Z</time>
            </trkpt>
            <trkpt lon="101.933126" lat="14.122581">
                <ele>42.916016</ele>
                <time>2007-06-30T09:17:49Z</time>
            </trkpt>
            <trkpt lon="101.932826" lat="14.122431">
                <ele>46.761230</ele>
                <time>2007-06-30T09:18:12Z</time>
            </trkpt>
            <trkpt lon="101.932697" lat="14.122410">
                <ele>38.590088</ele>
                <time>2007-06-30T09:18:39Z</time>
            </trkpt>
            <trkpt lon="101.932611" lat="14.122345">
                <ele>38.590088</ele>
                <time>2007-06-30T09:18:57Z</time>
            </trkpt>
            <trkpt lon="101.932290" lat="14.122260">
                <ele>38.109375</ele>
                <time>2007-06-30T09:19:14Z</time>
            </trkpt>
            <trkpt lon="101.932182" lat="14.122217">
                <ele>39.070679</ele>
                <time>2007-06-30T09:19:26Z</time>
            </trkpt>
            <trkpt lon="101.932118" lat="14.122195">
                <ele>40.512817</ele>
                <time>2007-06-30T09:19:34Z</time>
            </trkpt>
            <trkpt lon="101.932032" lat="14.121938">
                <ele>40.512817</ele>
                <time>2007-06-30T09:19:49Z</time>
            </trkpt>
            <trkpt lon="101.931839" lat="14.121745">
                <ele>39.070679</ele>
                <time>2007-06-30T09:20:02Z</time>
            </trkpt>
            <trkpt lon="101.931667" lat="14.121637">
                <ele>34.744873</ele>
                <time>2007-06-30T09:20:20Z</time>
            </trkpt>
            <trkpt lon="101.931667" lat="14.121616">
                <ele>35.225464</ele>
                <time>2007-06-30T09:20:29Z</time>
            </trkpt>
            <trkpt lon="101.931624" lat="14.121552">
                <ele>35.706055</ele>
                <time>2007-06-30T09:20:34Z</time>
            </trkpt>
            <trkpt lon="101.931581" lat="14.121552">
                <ele>36.186768</ele>
                <time>2007-06-30T09:20:36Z</time>
            </trkpt>
            <trkpt lon="101.931474" lat="14.121423">
                <ele>37.148071</ele>
                <time>2007-06-30T09:20:43Z</time>
            </trkpt>
            <trkpt lon="101.931367" lat="14.121251">
                <ele>39.551270</ele>
                <time>2007-06-30T09:21:00Z</time>
            </trkpt>
            <trkpt lon="101.931345" lat="14.121187">
                <ele>41.473999</ele>
                <time>2007-06-30T09:21:17Z</time>
            </trkpt>
            <trkpt lon="101.931303" lat="14.121079">
                <ele>40.512817</ele>
                <time>2007-06-30T09:21:34Z</time>
            </trkpt>
            <trkpt lon="101.931260" lat="14.120800">
                <ele>40.512817</ele>
                <time>2007-06-30T09:21:49Z</time>
            </trkpt>
            <trkpt lon="101.931303" lat="14.120543">
                <ele>40.032104</ele>
                <time>2007-06-30T09:22:04Z</time>
            </trkpt>
            <trkpt lon="101.931281" lat="14.120414">
                <ele>39.070679</ele>
                <time>2007-06-30T09:22:10Z</time>
            </trkpt>
            <trkpt lon="101.931281" lat="14.120371">
                <ele>40.032104</ele>
                <time>2007-06-30T09:22:21Z</time>
            </trkpt>
            <trkpt lon="101.931260" lat="14.120307">
                <ele>42.916016</ele>
                <time>2007-06-30T09:22:35Z</time>
            </trkpt>
            <trkpt lon="101.931260" lat="14.120307">
                <ele>43.396606</ele>
                <time>2007-06-30T09:22:37Z</time>
            </trkpt>
            <trkpt lon="101.931195" lat="14.120007">
                <ele>42.435425</ele>
                <time>2007-06-30T09:22:48Z</time>
            </trkpt>
            <trkpt lon="101.931109" lat="14.119728">
                <ele>42.916016</ele>
                <time>2007-06-30T09:23:05Z</time>
            </trkpt>
            <trkpt lon="101.930809" lat="14.119556">
                <ele>46.761230</ele>
                <time>2007-06-30T09:23:24Z</time>
            </trkpt>
            <trkpt lon="101.930358" lat="14.119298">
                <ele>45.799927</ele>
                <time>2007-06-30T09:23:40Z</time>
            </trkpt>
            <trkpt lon="101.930208" lat="14.119148">
                <ele>46.761230</ele>
                <time>2007-06-30T09:23:48Z</time>
            </trkpt>
            <trkpt lon="101.930208" lat="14.118977">
                <ele>47.722534</ele>
                <time>2007-06-30T09:23:55Z</time>
            </trkpt>
            <trkpt lon="101.930015" lat="14.118590">
                <ele>49.645264</ele>
                <time>2007-06-30T09:24:11Z</time>
            </trkpt>
            <trkpt lon="101.929843" lat="14.118268">
                <ele>50.125977</ele>
                <time>2007-06-30T09:24:26Z</time>
            </trkpt>
            <trkpt lon="101.929629" lat="14.117947">
                <ele>50.125977</ele>
                <time>2007-06-30T09:24:41Z</time>
            </trkpt>
            <trkpt lon="101.929479" lat="14.117775">
                <ele>47.722534</ele>
                <time>2007-06-30T09:24:47Z</time>
            </trkpt>
            <trkpt lon="101.928556" lat="14.117646">
                <ele>48.203369</ele>
                <time>2007-06-30T09:25:05Z</time>
            </trkpt>
            <trkpt lon="101.927569" lat="14.117560">
                <ele>47.241821</ele>
                <time>2007-06-30T09:25:21Z</time>
            </trkpt>
            <trkpt lon="101.927505" lat="14.117560">
                <ele>45.799927</ele>
                <time>2007-06-30T09:25:22Z</time>
            </trkpt>
            <trkpt lon="101.927226" lat="14.117496">
                <ele>44.358032</ele>
                <time>2007-06-30T09:25:28Z</time>
            </trkpt>
            <trkpt lon="101.926625" lat="14.117475">
                <ele>42.916016</ele>
                <time>2007-06-30T09:25:44Z</time>
            </trkpt>
            <trkpt lon="101.926088" lat="14.117711">
                <ele>42.435425</ele>
                <time>2007-06-30T09:25:59Z</time>
            </trkpt>
            <trkpt lon="101.925809" lat="14.117754">
                <ele>40.993408</ele>
                <time>2007-06-30T09:26:04Z</time>
            </trkpt>
            <trkpt lon="101.925466" lat="14.117775">
                <ele>40.512817</ele>
                <time>2007-06-30T09:26:11Z</time>
            </trkpt>
            <trkpt lon="101.925123" lat="14.117689">
                <ele>40.032104</ele>
                <time>2007-06-30T09:26:20Z</time>
            </trkpt>
            <trkpt lon="101.924865" lat="14.117603">
                <ele>39.551270</ele>
                <time>2007-06-30T09:26:25Z</time>
            </trkpt>
            <trkpt lon="101.924672" lat="14.117603">
                <ele>40.993408</ele>
                <time>2007-06-30T09:26:29Z</time>
            </trkpt>
            <trkpt lon="101.924200" lat="14.117689">
                <ele>41.954712</ele>
                <time>2007-06-30T09:26:45Z</time>
            </trkpt>
            <trkpt lon="101.923878" lat="14.117603">
                <ele>40.032104</ele>
                <time>2007-06-30T09:26:57Z</time>
            </trkpt>
            <trkpt lon="101.923535" lat="14.117088">
                <ele>39.070679</ele>
                <time>2007-06-30T09:27:12Z</time>
            </trkpt>
            <trkpt lon="101.923213" lat="14.116595">
                <ele>39.070679</ele>
                <time>2007-06-30T09:27:30Z</time>
            </trkpt>
            <trkpt lon="101.923213" lat="14.116616">
                <ele>39.070679</ele>
                <time>2007-06-30T09:27:32Z</time>
            </trkpt>
            <trkpt lon="101.923063" lat="14.116466">
                <ele>38.109375</ele>
                <time>2007-06-30T09:27:50Z</time>
            </trkpt>
            <trkpt lon="101.922870" lat="14.116144">
                <ele>38.590088</ele>
                <time>2007-06-30T09:28:06Z</time>
            </trkpt>
            <trkpt lon="101.922719" lat="14.115844">
                <ele>37.628662</ele>
                <time>2007-06-30T09:28:16Z</time>
            </trkpt>
            <trkpt lon="101.922634" lat="14.115565">
                <ele>39.070679</ele>
                <time>2007-06-30T09:28:28Z</time>
            </trkpt>
            <trkpt lon="101.922441" lat="14.115200">
                <ele>38.590088</ele>
                <time>2007-06-30T09:28:41Z</time>
            </trkpt>
            <trkpt lon="101.922097" lat="14.114857">
                <ele>36.667480</ele>
                <time>2007-06-30T09:28:56Z</time>
            </trkpt>
            <trkpt lon="101.921861" lat="14.114707">
                <ele>33.302856</ele>
                <time>2007-06-30T09:29:11Z</time>
            </trkpt>
            <trkpt lon="101.921496" lat="14.114642">
                <ele>32.822266</ele>
                <time>2007-06-30T09:29:25Z</time>
            </trkpt>
            <trkpt lon="101.921325" lat="14.114814">
                <ele>33.302856</ele>
                <time>2007-06-30T09:29:39Z</time>
            </trkpt>
            <trkpt lon="101.921239" lat="14.115028">
                <ele>35.225464</ele>
                <time>2007-06-30T09:29:54Z</time>
            </trkpt>
            <trkpt lon="101.921196" lat="14.115050">
                <ele>35.706055</ele>
                <time>2007-06-30T09:29:58Z</time>
            </trkpt>
            <trkpt lon="101.921217" lat="14.115050">
                <ele>35.706055</ele>
                <time>2007-06-30T09:30:07Z</time>
            </trkpt>
            <trkpt lon="101.921303" lat="14.114835">
                <ele>36.667480</ele>
                <time>2007-06-30T09:30:21Z</time>
            </trkpt>
            <trkpt lon="101.921539" lat="14.114664">
                <ele>34.264160</ele>
                <time>2007-06-30T09:30:32Z</time>
            </trkpt>
            <trkpt lon="101.921840" lat="14.114749">
                <ele>34.744873</ele>
                <time>2007-06-30T09:30:44Z</time>
            </trkpt>
            <trkpt lon="101.921968" lat="14.114835">
                <ele>36.186768</ele>
                <time>2007-06-30T09:30:58Z</time>
            </trkpt>
            <trkpt lon="101.922033" lat="14.114814">
                <ele>35.706055</ele>
                <time>2007-06-30T09:31:50Z</time>
            </trkpt>
            <trkpt lon="101.922247" lat="14.114943">
                <ele>37.628662</ele>
                <time>2007-06-30T09:32:06Z</time>
            </trkpt>
            <trkpt lon="101.922505" lat="14.115329">
                <ele>38.109375</ele>
                <time>2007-06-30T09:32:23Z</time>
            </trkpt>
            <trkpt lon="101.922784" lat="14.115822">
                <ele>38.109375</ele>
                <time>2007-06-30T09:32:42Z</time>
            </trkpt>
            <trkpt lon="101.923106" lat="14.116402">
                <ele>39.551270</ele>
                <time>2007-06-30T09:33:05Z</time>
            </trkpt>
            <trkpt lon="101.923106" lat="14.116423">
                <ele>39.551270</ele>
                <time>2007-06-30T09:33:16Z</time>
            </trkpt>
            <trkpt lon="101.923084" lat="14.116488">
                <ele>42.435425</ele>
                <time>2007-06-30T09:33:30Z</time>
            </trkpt>
            <trkpt lon="101.923127" lat="14.116595">
                <ele>40.512817</ele>
                <time>2007-06-30T09:33:48Z</time>
            </trkpt>
            <trkpt lon="101.923256" lat="14.116831">
                <ele>40.993408</ele>
                <time>2007-06-30T09:34:04Z</time>
            </trkpt>
            <trkpt lon="101.923256" lat="14.116852">
                <ele>41.473999</ele>
                <time>2007-06-30T09:34:05Z</time>
            </trkpt>
            <trkpt lon="101.923084" lat="14.117002">
                <ele>36.186768</ele>
                <time>2007-06-30T09:34:22Z</time>
            </trkpt>
            <trkpt lon="101.922870" lat="14.117088">
                <ele>39.070679</ele>
                <time>2007-06-30T09:34:37Z</time>
            </trkpt>
            <trkpt lon="101.922784" lat="14.117131">
                <ele>38.590088</ele>
                <time>2007-06-30T09:34:46Z</time>
            </trkpt>
            <trkpt lon="101.922569" lat="14.117260">
                <ele>36.186768</ele>
                <time>2007-06-30T09:35:06Z</time>
            </trkpt>
            <trkpt lon="101.922054" lat="14.117410">
                <ele>39.070679</ele>
                <time>2007-06-30T09:35:25Z</time>
            </trkpt>
            <trkpt lon="101.921368" lat="14.117625">
                <ele>41.473999</ele>
                <time>2007-06-30T09:35:41Z</time>
            </trkpt>
            <trkpt lon="101.920745" lat="14.117861">
                <ele>44.838623</ele>
                <time>2007-06-30T09:36:00Z</time>
            </trkpt>
            <trkpt lon="101.920230" lat="14.118011">
                <ele>43.396606</ele>
                <time>2007-06-30T09:36:13Z</time>
            </trkpt>
            <trkpt lon="101.920166" lat="14.117947">
                <ele>43.877319</ele>
                <time>2007-06-30T09:36:16Z</time>
            </trkpt>
            <trkpt lon="101.920080" lat="14.117775">
                <ele>45.319214</ele>
                <time>2007-06-30T09:36:20Z</time>
            </trkpt>
            <trkpt lon="101.919951" lat="14.117088">
                <ele>42.916016</ele>
                <time>2007-06-30T09:36:40Z</time>
            </trkpt>
            <trkpt lon="101.919887" lat="14.117024">
                <ele>42.435425</ele>
                <time>2007-06-30T09:36:43Z</time>
            </trkpt>
            <trkpt lon="101.919651" lat="14.116359">
                <ele>41.954712</ele>
                <time>2007-06-30T09:36:57Z</time>
            </trkpt>
            <trkpt lon="101.919587" lat="14.116273">
                <ele>41.954712</ele>
                <time>2007-06-30T09:36:59Z</time>
            </trkpt>
            <trkpt lon="101.918857" lat="14.116251">
                <ele>39.551270</ele>
                <time>2007-06-30T09:37:12Z</time>
            </trkpt>
            <trkpt lon="101.918213" lat="14.116273">
                <ele>40.512817</ele>
                <time>2007-06-30T09:37:25Z</time>
            </trkpt>
            <trkpt lon="101.917999" lat="14.116187">
                <ele>40.993408</ele>
                <time>2007-06-30T09:37:29Z</time>
            </trkpt>
            <trkpt lon="101.917527" lat="14.115801">
                <ele>40.993408</ele>
                <time>2007-06-30T09:37:42Z</time>
            </trkpt>
            <trkpt lon="101.916926" lat="14.115286">
                <ele>40.512817</ele>
                <time>2007-06-30T09:38:00Z</time>
            </trkpt>
            <trkpt lon="101.916282" lat="14.114771">
                <ele>40.993408</ele>
                <time>2007-06-30T09:38:16Z</time>
            </trkpt>
            <trkpt lon="101.915553" lat="14.114106">
                <ele>40.512817</ele>
                <time>2007-06-30T09:38:36Z</time>
            </trkpt>
            <trkpt lon="101.915038" lat="14.113526">
                <ele>38.590088</ele>
                <time>2007-06-30T09:38:52Z</time>
            </trkpt>
            <trkpt lon="101.914566" lat="14.112732">
                <ele>37.148071</ele>
                <time>2007-06-30T09:39:11Z</time>
            </trkpt>
            <trkpt lon="101.914458" lat="14.112604">
                <ele>35.706055</ele>
                <time>2007-06-30T09:39:19Z</time>
            </trkpt>
            <trkpt lon="101.914394" lat="14.112539">
                <ele>36.186768</ele>
                <time>2007-06-30T09:39:47Z</time>
            </trkpt>
            <trkpt lon="101.914029" lat="14.112110">
                <ele>36.186768</ele>
                <time>2007-06-30T09:40:03Z</time>
            </trkpt>
            <trkpt lon="101.914008" lat="14.112089">
                <ele>35.225464</ele>
                <time>2007-06-30T09:40:04Z</time>
            </trkpt>
            <trkpt lon="101.913857" lat="14.112089">
                <ele>33.783447</ele>
                <time>2007-06-30T09:40:08Z</time>
            </trkpt>
            <trkpt lon="101.913621" lat="14.112024">
                <ele>32.822266</ele>
                <time>2007-06-30T09:40:14Z</time>
            </trkpt>
            <trkpt lon="101.913364" lat="14.111896">
                <ele>31.860718</ele>
                <time>2007-06-30T09:40:27Z</time>
            </trkpt>
            <trkpt lon="101.913257" lat="14.111896">
                <ele>32.341553</ele>
                <time>2007-06-30T09:40:32Z</time>
            </trkpt>
            <trkpt lon="101.913128" lat="14.111617">
                <ele>31.380127</ele>
                <time>2007-06-30T09:40:42Z</time>
            </trkpt>
            <trkpt lon="101.912827" lat="14.111617">
                <ele>30.418823</ele>
                <time>2007-06-30T09:40:54Z</time>
            </trkpt>
            <trkpt lon="101.912313" lat="14.111702">
                <ele>28.496216</ele>
                <time>2007-06-30T09:41:07Z</time>
            </trkpt>
            <trkpt lon="101.912098" lat="14.111617">
                <ele>29.938110</ele>
                <time>2007-06-30T09:41:21Z</time>
            </trkpt>
            <trkpt lon="101.912098" lat="14.111595">
                <ele>28.976929</ele>
                <time>2007-06-30T09:41:32Z</time>
            </trkpt>
            <trkpt lon="101.912119" lat="14.111574">
                <ele>28.976929</ele>
                <time>2007-06-30T09:41:35Z</time>
            </trkpt>
            <trkpt lon="101.912141" lat="14.111574">
                <ele>29.457520</ele>
                <time>2007-06-30T09:41:40Z</time>
            </trkpt>
            <trkpt lon="101.912162" lat="14.111595">
                <ele>29.457520</ele>
                <time>2007-06-30T09:41:44Z</time>
            </trkpt>
            <trkpt lon="101.912270" lat="14.111509">
                <ele>29.457520</ele>
                <time>2007-06-30T09:41:59Z</time>
            </trkpt>
            <trkpt lon="101.912270" lat="14.111466">
                <ele>29.457520</ele>
                <time>2007-06-30T09:42:03Z</time>
            </trkpt>
            <trkpt lon="101.912270" lat="14.111445">
                <ele>28.976929</ele>
                <time>2007-06-30T09:42:05Z</time>
            </trkpt>
            <trkpt lon="101.912248" lat="14.111381">
                <ele>28.496216</ele>
                <time>2007-06-30T09:42:10Z</time>
            </trkpt>
            <trkpt lon="101.912184" lat="14.111230">
                <ele>28.976929</ele>
                <time>2007-06-30T09:42:28Z</time>
            </trkpt>
            <trkpt lon="101.912162" lat="14.111230">
                <ele>29.938110</ele>
                <time>2007-06-30T09:42:41Z</time>
            </trkpt>
            <trkpt lon="101.912141" lat="14.111230">
                <ele>30.418823</ele>
                <time>2007-06-30T09:42:56Z</time>
            </trkpt>
            <trkpt lon="101.912034" lat="14.111016">
                <ele>28.496216</ele>
                <time>2007-06-30T09:43:14Z</time>
            </trkpt>
            <trkpt lon="101.911969" lat="14.110866">
                <ele>25.612305</ele>
                <time>2007-06-30T09:43:34Z</time>
            </trkpt>
            <trkpt lon="101.911883" lat="14.110694">
                <ele>26.573608</ele>
                <time>2007-06-30T09:43:42Z</time>
            </trkpt>
            <trkpt lon="101.911948" lat="14.110651">
                <ele>27.534912</ele>
                <time>2007-06-30T09:43:47Z</time>
            </trkpt>
            <trkpt lon="101.912184" lat="14.110458">
                <ele>28.015503</ele>
                <time>2007-06-30T09:44:03Z</time>
            </trkpt>
            <trkpt lon="101.912162" lat="14.110179">
                <ele>26.573608</ele>
                <time>2007-06-30T09:44:18Z</time>
            </trkpt>
            <trkpt lon="101.912162" lat="14.110115">
                <ele>24.170288</ele>
                <time>2007-06-30T09:44:36Z</time>
            </trkpt>
            <trkpt lon="101.912162" lat="14.110136">
                <ele>24.170288</ele>
                <time>2007-06-30T09:44:39Z</time>
            </trkpt>
            <trkpt lon="101.912205" lat="14.110243">
                <ele>24.651001</ele>
                <time>2007-06-30T09:44:55Z</time>
            </trkpt>
            <trkpt lon="101.912227" lat="14.110243">
                <ele>25.131714</ele>
                <time>2007-06-30T09:44:58Z</time>
            </trkpt>
            <trkpt lon="101.912398" lat="14.110157">
                <ele>25.612305</ele>
                <time>2007-06-30T09:45:13Z</time>
            </trkpt>
            <trkpt lon="101.912527" lat="14.109964">
                <ele>25.612305</ele>
                <time>2007-06-30T09:45:26Z</time>
            </trkpt>
            <trkpt lon="101.912591" lat="14.109857">
                <ele>27.054321</ele>
                <time>2007-06-30T09:45:37Z</time>
            </trkpt>
            <trkpt lon="101.912806" lat="14.109685">
                <ele>29.938110</ele>
                <time>2007-06-30T09:45:53Z</time>
            </trkpt>
            <trkpt lon="101.912827" lat="14.109664">
                <ele>29.938110</ele>
                <time>2007-06-30T09:45:54Z</time>
            </trkpt>
            <trkpt lon="101.912785" lat="14.109600">
                <ele>29.938110</ele>
                <time>2007-06-30T09:45:58Z</time>
            </trkpt>
            <trkpt lon="101.912634" lat="14.109364">
                <ele>29.457520</ele>
                <time>2007-06-30T09:46:12Z</time>
            </trkpt>
            <trkpt lon="101.912591" lat="14.109278">
                <ele>28.496216</ele>
                <time>2007-06-30T09:46:17Z</time>
            </trkpt>
            <trkpt lon="101.912484" lat="14.109299">
                <ele>27.534912</ele>
                <time>2007-06-30T09:46:23Z</time>
            </trkpt>
            <trkpt lon="101.912313" lat="14.109428">
                <ele>25.131714</ele>
                <time>2007-06-30T09:46:37Z</time>
            </trkpt>
            <trkpt lon="101.912205" lat="14.109449">
                <ele>27.534912</ele>
                <time>2007-06-30T09:46:52Z</time>
            </trkpt>
            <trkpt lon="101.912076" lat="14.109471">
                <ele>27.534912</ele>
                <time>2007-06-30T09:47:11Z</time>
            </trkpt>
            <trkpt lon="101.911991" lat="14.109557">
                <ele>28.976929</ele>
                <time>2007-06-30T09:47:26Z</time>
            </trkpt>
            <trkpt lon="101.911883" lat="14.109643">
                <ele>29.457520</ele>
                <time>2007-06-30T09:47:33Z</time>
            </trkpt>
            <trkpt lon="101.911304" lat="14.109728">
                <ele>28.496216</ele>
                <time>2007-06-30T09:47:51Z</time>
            </trkpt>
            <trkpt lon="101.910982" lat="14.109750">
                <ele>30.899536</ele>
                <time>2007-06-30T09:48:07Z</time>
            </trkpt>
            <trkpt lon="101.910617" lat="14.109836">
                <ele>31.380127</ele>
                <time>2007-06-30T09:48:25Z</time>
            </trkpt>
            <trkpt lon="101.909974" lat="14.109986">
                <ele>33.783447</ele>
                <time>2007-06-30T09:48:47Z</time>
            </trkpt>
            <trkpt lon="101.909437" lat="14.110115">
                <ele>34.744873</ele>
                <time>2007-06-30T09:49:03Z</time>
            </trkpt>
            <trkpt lon="101.908944" lat="14.110222">
                <ele>38.109375</ele>
                <time>2007-06-30T09:49:20Z</time>
            </trkpt>
            <trkpt lon="101.908364" lat="14.110372">
                <ele>38.109375</ele>
                <time>2007-06-30T09:49:40Z</time>
            </trkpt>
            <trkpt lon="101.907742" lat="14.110522">
                <ele>40.032104</ele>
                <time>2007-06-30T09:50:01Z</time>
            </trkpt>
            <trkpt lon="101.907248" lat="14.110630">
                <ele>39.551270</ele>
                <time>2007-06-30T09:50:20Z</time>
            </trkpt>
            <trkpt lon="101.907248" lat="14.110651">
                <ele>39.551270</ele>
                <time>2007-06-30T09:50:21Z</time>
            </trkpt>
            <trkpt lon="101.907184" lat="14.111037">
                <ele>40.032104</ele>
                <time>2007-06-30T09:50:34Z</time>
            </trkpt>
            <trkpt lon="101.907163" lat="14.111981">
                <ele>38.109375</ele>
                <time>2007-06-30T09:50:52Z</time>
            </trkpt>
            <trkpt lon="101.907120" lat="14.112990">
                <ele>39.551270</ele>
                <time>2007-06-30T09:51:11Z</time>
            </trkpt>
            <trkpt lon="101.907098" lat="14.113998">
                <ele>39.551270</ele>
                <time>2007-06-30T09:51:31Z</time>
            </trkpt>
            <trkpt lon="101.907077" lat="14.115071">
                <ele>39.070679</ele>
                <time>2007-06-30T09:51:49Z</time>
            </trkpt>
            <trkpt lon="101.907055" lat="14.115844">
                <ele>40.032104</ele>
                <time>2007-06-30T09:52:03Z</time>
            </trkpt>
            <trkpt lon="101.907012" lat="14.116788">
                <ele>39.070679</ele>
                <time>2007-06-30T09:52:21Z</time>
            </trkpt>
            <trkpt lon="101.907012" lat="14.116895">
                <ele>39.070679</ele>
                <time>2007-06-30T09:52:23Z</time>
            </trkpt>
            <trkpt lon="101.906991" lat="14.117067">
                <ele>39.551270</ele>
                <time>2007-06-30T09:52:27Z</time>
            </trkpt>
            <trkpt lon="101.906970" lat="14.117260">
                <ele>38.590088</ele>
                <time>2007-06-30T09:52:32Z</time>
            </trkpt>
            <trkpt lon="101.906862" lat="14.117260">
                <ele>39.551270</ele>
                <time>2007-06-30T09:52:37Z</time>
            </trkpt>
            <trkpt lon="101.906519" lat="14.116766">
                <ele>39.551270</ele>
                <time>2007-06-30T09:52:56Z</time>
            </trkpt>
            <trkpt lon="101.906326" lat="14.116573">
                <ele>40.032104</ele>
                <time>2007-06-30T09:53:04Z</time>
            </trkpt>
            <trkpt lon="101.906154" lat="14.116638">
                <ele>40.993408</ele>
                <time>2007-06-30T09:53:11Z</time>
            </trkpt>
            <trkpt lon="101.905725" lat="14.116917">
                <ele>44.838623</ele>
                <time>2007-06-30T09:53:28Z</time>
            </trkpt>
            <trkpt lon="101.905124" lat="14.117217">
                <ele>48.203369</ele>
                <time>2007-06-30T09:53:50Z</time>
            </trkpt>
            <trkpt lon="101.904631" lat="14.117496">
                <ele>48.683960</ele>
                <time>2007-06-30T09:54:08Z</time>
            </trkpt>
            <trkpt lon="101.903858" lat="14.117925">
                <ele>48.203369</ele>
                <time>2007-06-30T09:54:27Z</time>
            </trkpt>
            <trkpt lon="101.903086" lat="14.118354">
                <ele>46.761230</ele>
                <time>2007-06-30T09:54:43Z</time>
            </trkpt>
            <trkpt lon="101.902292" lat="14.118826">
                <ele>46.761230</ele>
                <time>2007-06-30T09:55:02Z</time>
            </trkpt>
            <trkpt lon="101.901627" lat="14.119191">
                <ele>47.722534</ele>
                <time>2007-06-30T09:55:20Z</time>
            </trkpt>
            <trkpt lon="101.900811" lat="14.119663">
                <ele>51.087158</ele>
                <time>2007-06-30T09:55:44Z</time>
            </trkpt>
            <trkpt lon="101.900146" lat="14.120028">
                <ele>53.490479</ele>
                <time>2007-06-30T09:56:06Z</time>
            </trkpt>
            <trkpt lon="101.899502" lat="14.120414">
                <ele>57.335815</ele>
                <time>2007-06-30T09:56:31Z</time>
            </trkpt>
            <trkpt lon="101.898794" lat="14.120843">
                <ele>59.739136</ele>
                <time>2007-06-30T09:56:57Z</time>
            </trkpt>
            <trkpt lon="101.898086" lat="14.121273">
                <ele>62.622925</ele>
                <time>2007-06-30T09:57:22Z</time>
            </trkpt>
            <trkpt lon="101.897378" lat="14.121659">
                <ele>61.661743</ele>
                <time>2007-06-30T09:57:41Z</time>
            </trkpt>
            <trkpt lon="101.896176" lat="14.122260">
                <ele>61.181030</ele>
                <time>2007-06-30T09:58:06Z</time>
            </trkpt>
            <trkpt lon="101.895318" lat="14.122710">
                <ele>59.739136</ele>
                <time>2007-06-30T09:58:23Z</time>
            </trkpt>
            <trkpt lon="101.894524" lat="14.123096">
                <ele>58.297119</ele>
                <time>2007-06-30T09:58:38Z</time>
            </trkpt>
            <trkpt lon="101.893623" lat="14.123569">
                <ele>57.335815</ele>
                <time>2007-06-30T09:58:55Z</time>
            </trkpt>
            <trkpt lon="101.892507" lat="14.124169">
                <ele>55.413086</ele>
                <time>2007-06-30T09:59:15Z</time>
            </trkpt>
            <trkpt lon="101.891584" lat="14.124684">
                <ele>52.048584</ele>
                <time>2007-06-30T09:59:31Z</time>
            </trkpt>
            <trkpt lon="101.890812" lat="14.125092">
                <ele>48.203369</ele>
                <time>2007-06-30T09:59:45Z</time>
            </trkpt>
            <trkpt lon="101.890662" lat="14.125113">
                <ele>48.203369</ele>
                <time>2007-06-30T09:59:47Z</time>
            </trkpt>
            <trkpt lon="101.890275" lat="14.124942">
                <ele>48.683960</ele>
                <time>2007-06-30T09:59:53Z</time>
            </trkpt>
            <trkpt lon="101.889739" lat="14.124277">
                <ele>48.203369</ele>
                <time>2007-06-30T10:00:07Z</time>
            </trkpt>
            <trkpt lon="101.889160" lat="14.123526">
                <ele>43.877319</ele>
                <time>2007-06-30T10:00:22Z</time>
            </trkpt>
            <trkpt lon="101.888623" lat="14.122860">
                <ele>39.551270</ele>
                <time>2007-06-30T10:00:33Z</time>
            </trkpt>
            <trkpt lon="101.888151" lat="14.122281">
                <ele>39.551270</ele>
                <time>2007-06-30T10:00:44Z</time>
            </trkpt>
            <trkpt lon="101.887894" lat="14.121487">
                <ele>40.032104</ele>
                <time>2007-06-30T10:01:00Z</time>
            </trkpt>
            <trkpt lon="101.887765" lat="14.121187">
                <ele>39.551270</ele>
                <time>2007-06-30T10:01:07Z</time>
            </trkpt>
            <trkpt lon="101.887701" lat="14.121079">
                <ele>39.551270</ele>
                <time>2007-06-30T10:01:10Z</time>
            </trkpt>
            <trkpt lon="101.887400" lat="14.120650">
                <ele>40.512817</ele>
                <time>2007-06-30T10:01:21Z</time>
            </trkpt>
            <trkpt lon="101.886971" lat="14.120178">
                <ele>40.032104</ele>
                <time>2007-06-30T10:01:36Z</time>
            </trkpt>
            <trkpt lon="101.886499" lat="14.119513">
                <ele>37.628662</ele>
                <time>2007-06-30T10:01:52Z</time>
            </trkpt>
            <trkpt lon="101.885962" lat="14.118826">
                <ele>37.148071</ele>
                <time>2007-06-30T10:02:07Z</time>
            </trkpt>
            <trkpt lon="101.885705" lat="14.118848">
                <ele>38.590088</ele>
                <time>2007-06-30T10:02:15Z</time>
            </trkpt>
            <trkpt lon="101.885040" lat="14.119406">
                <ele>41.954712</ele>
                <time>2007-06-30T10:02:35Z</time>
            </trkpt>
            <trkpt lon="101.884246" lat="14.120049">
                <ele>43.396606</ele>
                <time>2007-06-30T10:02:59Z</time>
            </trkpt>
            <trkpt lon="101.883559" lat="14.120629">
                <ele>44.838623</ele>
                <time>2007-06-30T10:03:20Z</time>
            </trkpt>
            <trkpt lon="101.882765" lat="14.121315">
                <ele>47.241821</ele>
                <time>2007-06-30T10:03:42Z</time>
            </trkpt>
            <trkpt lon="101.882293" lat="14.121745">
                <ele>46.761230</ele>
                <time>2007-06-30T10:03:55Z</time>
            </trkpt>
            <trkpt lon="101.882379" lat="14.121895">
                <ele>46.761230</ele>
                <time>2007-06-30T10:04:07Z</time>
            </trkpt>
            <trkpt lon="101.882787" lat="14.122260">
                <ele>45.799927</ele>
                <time>2007-06-30T10:04:26Z</time>
            </trkpt>
            <trkpt lon="101.883323" lat="14.122860">
                <ele>46.280640</ele>
                <time>2007-06-30T10:04:50Z</time>
            </trkpt>
            <trkpt lon="101.883602" lat="14.123182">
                <ele>46.280640</ele>
                <time>2007-06-30T10:05:05Z</time>
            </trkpt>
            <trkpt lon="101.883709" lat="14.123268">
                <ele>43.877319</ele>
                <time>2007-06-30T10:05:11Z</time>
            </trkpt>
            <trkpt lon="101.884139" lat="14.123869">
                <ele>46.761230</ele>
                <time>2007-06-30T10:05:33Z</time>
            </trkpt>
            <trkpt lon="101.884267" lat="14.124448">
                <ele>46.761230</ele>
                <time>2007-06-30T10:05:49Z</time>
            </trkpt>
            <trkpt lon="101.884396" lat="14.125199">
                <ele>47.722534</ele>
                <time>2007-06-30T10:06:02Z</time>
            </trkpt>
            <trkpt lon="101.884589" lat="14.126272">
                <ele>48.683960</ele>
                <time>2007-06-30T10:06:20Z</time>
            </trkpt>
            <trkpt lon="101.884654" lat="14.127045">
                <ele>50.606567</ele>
                <time>2007-06-30T10:06:39Z</time>
            </trkpt>
            <trkpt lon="101.884782" lat="14.127667">
                <ele>52.048584</ele>
                <time>2007-06-30T10:06:57Z</time>
            </trkpt>
            <trkpt lon="101.884868" lat="14.128461">
                <ele>53.009766</ele>
                <time>2007-06-30T10:07:16Z</time>
            </trkpt>
            <trkpt lon="101.884911" lat="14.128611">
                <ele>53.490479</ele>
                <time>2007-06-30T10:07:19Z</time>
            </trkpt>
            <trkpt lon="101.885276" lat="14.129448">
                <ele>53.009766</ele>
                <time>2007-06-30T10:07:36Z</time>
            </trkpt>
            <trkpt lon="101.885619" lat="14.130328">
                <ele>49.164551</ele>
                <time>2007-06-30T10:07:52Z</time>
            </trkpt>
            <trkpt lon="101.886177" lat="14.131036">
                <ele>48.683960</ele>
                <time>2007-06-30T10:08:07Z</time>
            </trkpt>
            <trkpt lon="101.886950" lat="14.131765">
                <ele>49.645264</ele>
                <time>2007-06-30T10:08:27Z</time>
            </trkpt>
            <trkpt lon="101.887615" lat="14.132345">
                <ele>47.241821</ele>
                <time>2007-06-30T10:08:44Z</time>
            </trkpt>
            <trkpt lon="101.887851" lat="14.132581">
                <ele>45.319214</ele>
                <time>2007-06-30T10:08:50Z</time>
            </trkpt>
            <trkpt lon="101.887894" lat="14.132924">
                <ele>44.838623</ele>
                <time>2007-06-30T10:08:56Z</time>
            </trkpt>
            <trkpt lon="101.887786" lat="14.133825">
                <ele>44.358032</ele>
                <time>2007-06-30T10:09:11Z</time>
            </trkpt>
            <trkpt lon="101.887786" lat="14.133868">
                <ele>44.358032</ele>
                <time>2007-06-30T10:09:12Z</time>
            </trkpt>
            <trkpt lon="101.887443" lat="14.134705">
                <ele>44.838623</ele>
                <time>2007-06-30T10:09:28Z</time>
            </trkpt>
            <trkpt lon="101.887336" lat="14.134855">
                <ele>44.838623</ele>
                <time>2007-06-30T10:09:32Z</time>
            </trkpt>
            <trkpt lon="101.887186" lat="14.134984">
                <ele>44.838623</ele>
                <time>2007-06-30T10:09:36Z</time>
            </trkpt>
            <trkpt lon="101.887164" lat="14.135220">
                <ele>44.838623</ele>
                <time>2007-06-30T10:09:42Z</time>
            </trkpt>
            <trkpt lon="101.887228" lat="14.135392">
                <ele>43.396606</ele>
                <time>2007-06-30T10:09:47Z</time>
            </trkpt>
            <trkpt lon="101.887121" lat="14.135456">
                <ele>43.396606</ele>
                <time>2007-06-30T10:09:52Z</time>
            </trkpt>
            <trkpt lon="101.886306" lat="14.135628">
                <ele>43.877319</ele>
                <time>2007-06-30T10:10:09Z</time>
            </trkpt>
            <trkpt lon="101.884868" lat="14.135885">
                <ele>43.877319</ele>
                <time>2007-06-30T10:10:34Z</time>
            </trkpt>
            <trkpt lon="101.883731" lat="14.135993">
                <ele>43.396606</ele>
                <time>2007-06-30T10:10:55Z</time>
            </trkpt>
            <trkpt lon="101.882401" lat="14.135842">
                <ele>42.435425</ele>
                <time>2007-06-30T10:11:20Z</time>
            </trkpt>
            <trkpt lon="101.881542" lat="14.135628">
                <ele>40.993408</ele>
                <time>2007-06-30T10:11:39Z</time>
            </trkpt>
            <trkpt lon="101.881049" lat="14.135499">
                <ele>42.435425</ele>
                <time>2007-06-30T10:11:52Z</time>
            </trkpt>
            <trkpt lon="101.879911" lat="14.135199">
                <ele>42.435425</ele>
                <time>2007-06-30T10:12:14Z</time>
            </trkpt>
            <trkpt lon="101.878796" lat="14.134963">
                <ele>45.319214</ele>
                <time>2007-06-30T10:12:37Z</time>
            </trkpt>
            <trkpt lon="101.877959" lat="14.135005">
                <ele>47.722534</ele>
                <time>2007-06-30T10:12:58Z</time>
            </trkpt>
            <trkpt lon="101.877508" lat="14.135070">
                <ele>50.125977</ele>
                <time>2007-06-30T10:13:09Z</time>
            </trkpt>
            <trkpt lon="101.877422" lat="14.135113">
                <ele>50.125977</ele>
                <time>2007-06-30T10:13:11Z</time>
            </trkpt>
            <trkpt lon="101.876800" lat="14.135649">
                <ele>52.048584</ele>
                <time>2007-06-30T10:13:30Z</time>
            </trkpt>
            <trkpt lon="101.876070" lat="14.136014">
                <ele>52.529175</ele>
                <time>2007-06-30T10:13:48Z</time>
            </trkpt>
            <trkpt lon="101.875706" lat="14.136271">
                <ele>51.087158</ele>
                <time>2007-06-30T10:13:58Z</time>
            </trkpt>
            <trkpt lon="101.875706" lat="14.136164">
                <ele>51.087158</ele>
                <time>2007-06-30T10:14:13Z</time>
            </trkpt>
            <trkpt lon="101.875684" lat="14.136229">
                <ele>51.567871</ele>
                <time>2007-06-30T10:14:17Z</time>
            </trkpt>
            <trkpt lon="101.875684" lat="14.136250">
                <ele>51.087158</ele>
                <time>2007-06-30T10:14:22Z</time>
            </trkpt>
            <trkpt lon="101.875985" lat="14.136529">
                <ele>50.125977</ele>
                <time>2007-06-30T10:14:34Z</time>
            </trkpt>
            <trkpt lon="101.876736" lat="14.137259">
                <ele>48.203369</ele>
                <time>2007-06-30T10:14:52Z</time>
            </trkpt>
            <trkpt lon="101.877573" lat="14.138052">
                <ele>45.799927</ele>
                <time>2007-06-30T10:15:08Z</time>
            </trkpt>
            <trkpt lon="101.878109" lat="14.138546">
                <ele>45.319214</ele>
                <time>2007-06-30T10:15:18Z</time>
            </trkpt>
            <trkpt lon="101.878066" lat="14.138718">
                <ele>44.358032</ele>
                <time>2007-06-30T10:15:23Z</time>
            </trkpt>
            <trkpt lon="101.877315" lat="14.139233">
                <ele>43.396606</ele>
                <time>2007-06-30T10:15:39Z</time>
            </trkpt>
            <trkpt lon="101.876414" lat="14.139898">
                <ele>41.473999</ele>
                <time>2007-06-30T10:15:55Z</time>
            </trkpt>
            <trkpt lon="101.876285" lat="14.139984">
                <ele>41.473999</ele>
                <time>2007-06-30T10:15:57Z</time>
            </trkpt>
            <trkpt lon="101.875920" lat="14.140134">
                <ele>41.473999</ele>
                <time>2007-06-30T10:16:02Z</time>
            </trkpt>
            <trkpt lon="101.874654" lat="14.140091">
                <ele>41.473999</ele>
                <time>2007-06-30T10:16:20Z</time>
            </trkpt>
            <trkpt lon="101.874096" lat="14.140091">
                <ele>40.512817</ele>
                <time>2007-06-30T10:16:28Z</time>
            </trkpt>
            <trkpt lon="101.873152" lat="14.140134">
                <ele>38.590088</ele>
                <time>2007-06-30T10:16:42Z</time>
            </trkpt>
            <trkpt lon="101.872659" lat="14.140177">
                <ele>39.070679</ele>
                <time>2007-06-30T10:16:49Z</time>
            </trkpt>
            <trkpt lon="101.872466" lat="14.140241">
                <ele>39.070679</ele>
                <time>2007-06-30T10:16:52Z</time>
            </trkpt>
            <trkpt lon="101.871414" lat="14.140456">
                <ele>38.109375</ele>
                <time>2007-06-30T10:17:09Z</time>
            </trkpt>
            <trkpt lon="101.871243" lat="14.140499">
                <ele>38.109375</ele>
                <time>2007-06-30T10:17:12Z</time>
            </trkpt>
            <trkpt lon="101.870706" lat="14.140413">
                <ele>38.109375</ele>
                <time>2007-06-30T10:17:22Z</time>
            </trkpt>
            <trkpt lon="101.869955" lat="14.140542">
                <ele>37.628662</ele>
                <time>2007-06-30T10:17:34Z</time>
            </trkpt>
            <trkpt lon="101.869891" lat="14.140563">
                <ele>37.628662</ele>
                <time>2007-06-30T10:17:35Z</time>
            </trkpt>
            <trkpt lon="101.869633" lat="14.140456">
                <ele>36.667480</ele>
                <time>2007-06-30T10:17:39Z</time>
            </trkpt>
            <trkpt lon="101.869397" lat="14.140327">
                <ele>35.706055</ele>
                <time>2007-06-30T10:17:43Z</time>
            </trkpt>
            <trkpt lon="101.869097" lat="14.140520">
                <ele>36.186768</ele>
                <time>2007-06-30T10:17:50Z</time>
            </trkpt>
            <trkpt lon="101.869097" lat="14.140563">
                <ele>36.186768</ele>
                <time>2007-06-30T10:17:51Z</time>
            </trkpt>
            <trkpt lon="101.869054" lat="14.140799">
                <ele>36.186768</ele>
                <time>2007-06-30T10:17:55Z</time>
            </trkpt>
            <trkpt lon="101.868711" lat="14.141142">
                <ele>36.186768</ele>
                <time>2007-06-30T10:18:03Z</time>
            </trkpt>
            <trkpt lon="101.868646" lat="14.141228">
                <ele>36.186768</ele>
                <time>2007-06-30T10:18:05Z</time>
            </trkpt>
            <trkpt lon="101.868281" lat="14.141657">
                <ele>38.109375</ele>
                <time>2007-06-30T10:18:19Z</time>
            </trkpt>
            <trkpt lon="101.867638" lat="14.141979">
                <ele>38.109375</ele>
                <time>2007-06-30T10:18:37Z</time>
            </trkpt>
            <trkpt lon="101.867445" lat="14.141979">
                <ele>37.148071</ele>
                <time>2007-06-30T10:18:41Z</time>
            </trkpt>
            <trkpt lon="101.866844" lat="14.141743">
                <ele>37.148071</ele>
                <time>2007-06-30T10:18:54Z</time>
            </trkpt>
            <trkpt lon="101.866672" lat="14.141743">
                <ele>37.148071</ele>
                <time>2007-06-30T10:18:58Z</time>
            </trkpt>
            <trkpt lon="101.866586" lat="14.141829">
                <ele>39.070679</ele>
                <time>2007-06-30T10:19:06Z</time>
            </trkpt>
            <trkpt lon="101.866565" lat="14.141829">
                <ele>39.551270</ele>
                <time>2007-06-30T10:19:17Z</time>
            </trkpt>
            <trkpt lon="101.866543" lat="14.141872">
                <ele>39.551270</ele>
                <time>2007-06-30T10:19:24Z</time>
            </trkpt>
        </trkseg>
    </trk>
</gpx>